<?xml version="1.0" encoding="UTF-8" standalone="no" ?>
<gpx xmlns="http://www.topografix.com/GPX/1/1" xmlns:xsi="http://www.w3.org/2001/XMLSchema-instance" xsi:schemaLocation="http://www.topografix.com/GPX/1/1 http://www.topografix.com/GPX/1/1/gpx.xsd" version="1.1" creator="VisuGPX - https://www.visugpx.com">
  <metadata>
    <name>2020-02-23 15:53:05</name>
  </metadata>
  <trk>
    <name><![CDATA[2020-02-23 15:53:05]]></name>
    <trkseg>
      <trkpt lat="43.94458" lon="2.37743">
        <ele>200.57</ele>
        <time>2020-02-23T12:14:02Z</time>
      </trkpt>
      <trkpt lat="43.94466" lon="2.37757">
        <ele>201.05</ele>
        <time>2020-02-23T12:14:14Z</time>
      </trkpt>
      <trkpt lat="43.94468" lon="2.3776">
        <ele>199.61</ele>
        <time>2020-02-23T12:14:17Z</time>
      </trkpt>
      <trkpt lat="43.94473" lon="2.37763">
        <ele>198.65</ele>
        <time>2020-02-23T12:14:21Z</time>
      </trkpt>
      <trkpt lat="43.94476" lon="2.37766">
        <ele>198.17</ele>
        <time>2020-02-23T12:14:24Z</time>
      </trkpt>
      <trkpt lat="43.94491" lon="2.37753">
        <ele>199.61</ele>
        <time>2020-02-23T12:14:35Z</time>
      </trkpt>
      <trkpt lat="43.94502" lon="2.37738">
        <ele>198.17</ele>
        <time>2020-02-23T12:14:45Z</time>
      </trkpt>
      <trkpt lat="43.94513" lon="2.37721">
        <ele>198.65</ele>
        <time>2020-02-23T12:14:56Z</time>
      </trkpt>
      <trkpt lat="43.94523" lon="2.37707">
        <ele>198.65</ele>
        <time>2020-02-23T12:15:06Z</time>
      </trkpt>
      <trkpt lat="43.94537" lon="2.37686">
        <ele>198.65</ele>
        <time>2020-02-23T12:15:20Z</time>
      </trkpt>
      <trkpt lat="43.9455" lon="2.37667">
        <ele>198.17</ele>
        <time>2020-02-23T12:15:32Z</time>
      </trkpt>
      <trkpt lat="43.94564" lon="2.37646">
        <ele>197.69</ele>
        <time>2020-02-23T12:15:45Z</time>
      </trkpt>
      <trkpt lat="43.94575" lon="2.3763">
        <ele>197.69</ele>
        <time>2020-02-23T12:15:56Z</time>
      </trkpt>
      <trkpt lat="43.94589" lon="2.37608">
        <ele>197.21</ele>
        <time>2020-02-23T12:16:10Z</time>
      </trkpt>
      <trkpt lat="43.94596" lon="2.37595">
        <ele>198.65</ele>
        <time>2020-02-23T12:16:18Z</time>
      </trkpt>
      <trkpt lat="43.94599" lon="2.37584">
        <ele>200.09</ele>
        <time>2020-02-23T12:16:24Z</time>
      </trkpt>
      <trkpt lat="43.94602" lon="2.37579">
        <ele>201.05</ele>
        <time>2020-02-23T12:16:29Z</time>
      </trkpt>
      <trkpt lat="43.94615" lon="2.3759">
        <ele>199.13</ele>
        <time>2020-02-23T12:16:39Z</time>
      </trkpt>
      <trkpt lat="43.94623" lon="2.37601">
        <ele>197.21</ele>
        <time>2020-02-23T12:16:47Z</time>
      </trkpt>
      <trkpt lat="43.94626" lon="2.37606">
        <ele>196.73</ele>
        <time>2020-02-23T12:16:50Z</time>
      </trkpt>
      <trkpt lat="43.94631" lon="2.37613">
        <ele>195.77</ele>
        <time>2020-02-23T12:16:55Z</time>
      </trkpt>
      <trkpt lat="43.94636" lon="2.37615">
        <ele>194.8</ele>
        <time>2020-02-23T12:17:00Z</time>
      </trkpt>
      <trkpt lat="43.94639" lon="2.37607">
        <ele>195.77</ele>
        <time>2020-02-23T12:17:07Z</time>
      </trkpt>
      <trkpt lat="43.94643" lon="2.37598">
        <ele>197.21</ele>
        <time>2020-02-23T12:17:15Z</time>
      </trkpt>
      <trkpt lat="43.94643" lon="2.37595">
        <ele>197.69</ele>
        <time>2020-02-23T12:17:18Z</time>
      </trkpt>
      <trkpt lat="43.94636" lon="2.37591">
        <ele>198.65</ele>
        <time>2020-02-23T12:17:26Z</time>
      </trkpt>
      <trkpt lat="43.94631" lon="2.37587">
        <ele>199.13</ele>
        <time>2020-02-23T12:17:31Z</time>
      </trkpt>
      <trkpt lat="43.94624" lon="2.37576">
        <ele>202.98</ele>
        <time>2020-02-23T12:17:40Z</time>
      </trkpt>
      <trkpt lat="43.94622" lon="2.3757">
        <ele>203.94</ele>
        <time>2020-02-23T12:17:44Z</time>
      </trkpt>
      <trkpt lat="43.9462" lon="2.37568">
        <ele>204.42</ele>
        <time>2020-02-23T12:17:46Z</time>
      </trkpt>
      <trkpt lat="43.94616" lon="2.37558">
        <ele>206.82</ele>
        <time>2020-02-23T12:17:55Z</time>
      </trkpt>
      <trkpt lat="43.94612" lon="2.37548">
        <ele>209.7</ele>
        <time>2020-02-23T12:18:03Z</time>
      </trkpt>
      <trkpt lat="43.9461" lon="2.37538">
        <ele>211.63</ele>
        <time>2020-02-23T12:18:11Z</time>
      </trkpt>
      <trkpt lat="43.94613" lon="2.37526">
        <ele>214.51</ele>
        <time>2020-02-23T12:18:21Z</time>
      </trkpt>
      <trkpt lat="43.94619" lon="2.37526">
        <ele>215.47</ele>
        <time>2020-02-23T12:18:28Z</time>
      </trkpt>
      <trkpt lat="43.94623" lon="2.3753">
        <ele>216.43</ele>
        <time>2020-02-23T12:18:35Z</time>
      </trkpt>
      <trkpt lat="43.94625" lon="2.37533">
        <ele>216.91</ele>
        <time>2020-02-23T12:18:38Z</time>
      </trkpt>
      <trkpt lat="43.94632" lon="2.37542">
        <ele>216.91</ele>
        <time>2020-02-23T12:18:47Z</time>
      </trkpt>
      <trkpt lat="43.94641" lon="2.37548">
        <ele>217.88</ele>
        <time>2020-02-23T12:18:56Z</time>
      </trkpt>
      <trkpt lat="43.94646" lon="2.3755">
        <ele>218.36</ele>
        <time>2020-02-23T12:19:02Z</time>
      </trkpt>
      <trkpt lat="43.94653" lon="2.37547">
        <ele>219.8</ele>
        <time>2020-02-23T12:19:10Z</time>
      </trkpt>
      <trkpt lat="43.94662" lon="2.37545">
        <ele>220.28</ele>
        <time>2020-02-23T12:19:19Z</time>
      </trkpt>
      <trkpt lat="43.94667" lon="2.37541">
        <ele>219.8</ele>
        <time>2020-02-23T12:19:27Z</time>
      </trkpt>
      <trkpt lat="43.94674" lon="2.37538">
        <ele>219.8</ele>
        <time>2020-02-23T12:19:35Z</time>
      </trkpt>
      <trkpt lat="43.94677" lon="2.37536">
        <ele>219.8</ele>
        <time>2020-02-23T12:19:39Z</time>
      </trkpt>
      <trkpt lat="43.94685" lon="2.3753">
        <ele>220.76</ele>
        <time>2020-02-23T12:19:47Z</time>
      </trkpt>
      <trkpt lat="43.94693" lon="2.37525">
        <ele>221.24</ele>
        <time>2020-02-23T12:19:54Z</time>
      </trkpt>
      <trkpt lat="43.94702" lon="2.37518">
        <ele>220.28</ele>
        <time>2020-02-23T12:20:02Z</time>
      </trkpt>
      <trkpt lat="43.94706" lon="2.37515">
        <ele>219.8</ele>
        <time>2020-02-23T12:20:06Z</time>
      </trkpt>
      <trkpt lat="43.94706" lon="2.37508">
        <ele>219.8</ele>
        <time>2020-02-23T12:20:14Z</time>
      </trkpt>
      <trkpt lat="43.94698" lon="2.37508">
        <ele>222.2</ele>
        <time>2020-02-23T12:20:24Z</time>
      </trkpt>
      <trkpt lat="43.94692" lon="2.37504">
        <ele>224.12</ele>
        <time>2020-02-23T12:20:31Z</time>
      </trkpt>
      <trkpt lat="43.94686" lon="2.37499">
        <ele>225.57</ele>
        <time>2020-02-23T12:20:38Z</time>
      </trkpt>
      <trkpt lat="43.94683" lon="2.37497">
        <ele>227.49</ele>
        <time>2020-02-23T12:20:41Z</time>
      </trkpt>
      <trkpt lat="43.94676" lon="2.37483">
        <ele>231.33</ele>
        <time>2020-02-23T12:20:51Z</time>
      </trkpt>
      <trkpt lat="43.94672" lon="2.37474">
        <ele>236.14</ele>
        <time>2020-02-23T12:20:58Z</time>
      </trkpt>
      <trkpt lat="43.94668" lon="2.37463">
        <ele>239.02</ele>
        <time>2020-02-23T12:21:06Z</time>
      </trkpt>
      <trkpt lat="43.94666" lon="2.37455">
        <ele>240.47</ele>
        <time>2020-02-23T12:21:12Z</time>
      </trkpt>
      <trkpt lat="43.94664" lon="2.37444">
        <ele>242.39</ele>
        <time>2020-02-23T12:21:21Z</time>
      </trkpt>
      <trkpt lat="43.94663" lon="2.37441">
        <ele>242.87</ele>
        <time>2020-02-23T12:21:23Z</time>
      </trkpt>
      <trkpt lat="43.94661" lon="2.37426">
        <ele>246.72</ele>
        <time>2020-02-23T12:21:32Z</time>
      </trkpt>
      <trkpt lat="43.94659" lon="2.37413">
        <ele>249.6</ele>
        <time>2020-02-23T12:21:40Z</time>
      </trkpt>
      <trkpt lat="43.94658" lon="2.37401">
        <ele>251.04</ele>
        <time>2020-02-23T12:21:48Z</time>
      </trkpt>
      <trkpt lat="43.94658" lon="2.37389">
        <ele>252.48</ele>
        <time>2020-02-23T12:21:56Z</time>
      </trkpt>
      <trkpt lat="43.94658" lon="2.37376">
        <ele>252.48</ele>
        <time>2020-02-23T12:22:04Z</time>
      </trkpt>
      <trkpt lat="43.94656" lon="2.3737">
        <ele>252.96</ele>
        <time>2020-02-23T12:22:08Z</time>
      </trkpt>
      <trkpt lat="43.94654" lon="2.37364">
        <ele>253.93</ele>
        <time>2020-02-23T12:22:11Z</time>
      </trkpt>
      <trkpt lat="43.94656" lon="2.37347">
        <ele>256.33</ele>
        <time>2020-02-23T12:22:19Z</time>
      </trkpt>
      <trkpt lat="43.94656" lon="2.37332">
        <ele>259.21</ele>
        <time>2020-02-23T12:22:28Z</time>
      </trkpt>
      <trkpt lat="43.94654" lon="2.37321">
        <ele>263.06</ele>
        <time>2020-02-23T12:22:36Z</time>
      </trkpt>
      <trkpt lat="43.94653" lon="2.37317">
        <ele>264.5</ele>
        <time>2020-02-23T12:22:39Z</time>
      </trkpt>
      <trkpt lat="43.94653" lon="2.37304">
        <ele>269.79</ele>
        <time>2020-02-23T12:22:50Z</time>
      </trkpt>
      <trkpt lat="43.94655" lon="2.37289">
        <ele>271.23</ele>
        <time>2020-02-23T12:22:59Z</time>
      </trkpt>
      <trkpt lat="43.94657" lon="2.37272">
        <ele>272.67</ele>
        <time>2020-02-23T12:23:09Z</time>
      </trkpt>
      <trkpt lat="43.94658" lon="2.37257">
        <ele>274.11</ele>
        <time>2020-02-23T12:23:19Z</time>
      </trkpt>
      <trkpt lat="43.94659" lon="2.37244">
        <ele>274.59</ele>
        <time>2020-02-23T12:23:27Z</time>
      </trkpt>
      <trkpt lat="43.94659" lon="2.37243">
        <ele>274.59</ele>
        <time>2020-02-23T12:23:28Z</time>
      </trkpt>
      <trkpt lat="43.94657" lon="2.37229">
        <ele>275.07</ele>
        <time>2020-02-23T12:23:36Z</time>
      </trkpt>
      <trkpt lat="43.94654" lon="2.37217">
        <ele>275.07</ele>
        <time>2020-02-23T12:23:44Z</time>
      </trkpt>
      <trkpt lat="43.9465" lon="2.37204">
        <ele>276.04</ele>
        <time>2020-02-23T12:23:53Z</time>
      </trkpt>
      <trkpt lat="43.94647" lon="2.37195">
        <ele>276.04</ele>
        <time>2020-02-23T12:23:59Z</time>
      </trkpt>
      <trkpt lat="43.94648" lon="2.3718">
        <ele>275.56</ele>
        <time>2020-02-23T12:24:08Z</time>
      </trkpt>
      <trkpt lat="43.94648" lon="2.37176">
        <ele>275.56</ele>
        <time>2020-02-23T12:24:10Z</time>
      </trkpt>
      <trkpt lat="43.9465" lon="2.37167">
        <ele>276.04</ele>
        <time>2020-02-23T12:24:14Z</time>
      </trkpt>
      <trkpt lat="43.94657" lon="2.37147">
        <ele>277</ele>
        <time>2020-02-23T12:24:24Z</time>
      </trkpt>
      <trkpt lat="43.94669" lon="2.37132">
        <ele>277.48</ele>
        <time>2020-02-23T12:24:35Z</time>
      </trkpt>
      <trkpt lat="43.94683" lon="2.37121">
        <ele>276.52</ele>
        <time>2020-02-23T12:24:47Z</time>
      </trkpt>
      <trkpt lat="43.94691" lon="2.37113">
        <ele>275.56</ele>
        <time>2020-02-23T12:24:55Z</time>
      </trkpt>
      <trkpt lat="43.94703" lon="2.37104">
        <ele>275.07</ele>
        <time>2020-02-23T12:25:05Z</time>
      </trkpt>
      <trkpt lat="43.94716" lon="2.37093">
        <ele>274.11</ele>
        <time>2020-02-23T12:25:15Z</time>
      </trkpt>
      <trkpt lat="43.94728" lon="2.37081">
        <ele>270.27</ele>
        <time>2020-02-23T12:25:26Z</time>
      </trkpt>
      <trkpt lat="43.94739" lon="2.37071">
        <ele>266.9</ele>
        <time>2020-02-23T12:25:36Z</time>
      </trkpt>
      <trkpt lat="43.94742" lon="2.37067">
        <ele>265.94</ele>
        <time>2020-02-23T12:25:39Z</time>
      </trkpt>
      <trkpt lat="43.94753" lon="2.37047">
        <ele>263.54</ele>
        <time>2020-02-23T12:25:51Z</time>
      </trkpt>
      <trkpt lat="43.9476" lon="2.37033">
        <ele>260.17</ele>
        <time>2020-02-23T12:26:00Z</time>
      </trkpt>
      <trkpt lat="43.94765" lon="2.37016">
        <ele>257.29</ele>
        <time>2020-02-23T12:26:10Z</time>
      </trkpt>
      <trkpt lat="43.94769" lon="2.37">
        <ele>253.93</ele>
        <time>2020-02-23T12:26:19Z</time>
      </trkpt>
      <trkpt lat="43.94773" lon="2.36986">
        <ele>247.68</ele>
        <time>2020-02-23T12:26:30Z</time>
      </trkpt>
      <trkpt lat="43.94776" lon="2.36976">
        <ele>244.79</ele>
        <time>2020-02-23T12:26:37Z</time>
      </trkpt>
      <trkpt lat="43.94783" lon="2.3695">
        <ele>249.6</ele>
        <time>2020-02-23T12:26:47Z</time>
      </trkpt>
      <trkpt lat="43.94792" lon="2.36932">
        <ele>253.44</ele>
        <time>2020-02-23T12:26:56Z</time>
      </trkpt>
      <trkpt lat="43.94802" lon="2.36918">
        <ele>253.93</ele>
        <time>2020-02-23T12:27:06Z</time>
      </trkpt>
      <trkpt lat="43.94809" lon="2.36899">
        <ele>255.85</ele>
        <time>2020-02-23T12:27:16Z</time>
      </trkpt>
      <trkpt lat="43.94814" lon="2.36884">
        <ele>253.93</ele>
        <time>2020-02-23T12:27:26Z</time>
      </trkpt>
      <trkpt lat="43.94822" lon="2.36868">
        <ele>253.44</ele>
        <time>2020-02-23T12:27:35Z</time>
      </trkpt>
      <trkpt lat="43.9483" lon="2.36854">
        <ele>253.44</ele>
        <time>2020-02-23T12:27:43Z</time>
      </trkpt>
      <trkpt lat="43.94837" lon="2.36845">
        <ele>253.44</ele>
        <time>2020-02-23T12:27:50Z</time>
      </trkpt>
      <trkpt lat="43.94848" lon="2.36835">
        <ele>252.96</ele>
        <time>2020-02-23T12:27:59Z</time>
      </trkpt>
      <trkpt lat="43.94858" lon="2.3682">
        <ele>251.04</ele>
        <time>2020-02-23T12:28:10Z</time>
      </trkpt>
      <trkpt lat="43.94866" lon="2.36803">
        <ele>248.16</ele>
        <time>2020-02-23T12:28:21Z</time>
      </trkpt>
      <trkpt lat="43.94869" lon="2.36788">
        <ele>245.75</ele>
        <time>2020-02-23T12:28:30Z</time>
      </trkpt>
      <trkpt lat="43.94869" lon="2.36781">
        <ele>243.83</ele>
        <time>2020-02-23T12:28:34Z</time>
      </trkpt>
      <trkpt lat="43.94865" lon="2.3676">
        <ele>239.51</ele>
        <time>2020-02-23T12:28:44Z</time>
      </trkpt>
      <trkpt lat="43.94861" lon="2.36747">
        <ele>237.58</ele>
        <time>2020-02-23T12:28:51Z</time>
      </trkpt>
      <trkpt lat="43.94859" lon="2.36731">
        <ele>239.02</ele>
        <time>2020-02-23T12:28:58Z</time>
      </trkpt>
      <trkpt lat="43.94863" lon="2.36723">
        <ele>240.47</ele>
        <time>2020-02-23T12:29:03Z</time>
      </trkpt>
      <trkpt lat="43.94873" lon="2.36708">
        <ele>241.91</ele>
        <time>2020-02-23T12:29:13Z</time>
      </trkpt>
      <trkpt lat="43.94881" lon="2.36692">
        <ele>247.2</ele>
        <time>2020-02-23T12:29:23Z</time>
      </trkpt>
      <trkpt lat="43.94882" lon="2.36679">
        <ele>249.6</ele>
        <time>2020-02-23T12:29:32Z</time>
      </trkpt>
      <trkpt lat="43.94884" lon="2.36663">
        <ele>251.52</ele>
        <time>2020-02-23T12:29:41Z</time>
      </trkpt>
      <trkpt lat="43.94888" lon="2.36647">
        <ele>251.04</ele>
        <time>2020-02-23T12:29:49Z</time>
      </trkpt>
      <trkpt lat="43.94893" lon="2.36636">
        <ele>250.56</ele>
        <time>2020-02-23T12:29:57Z</time>
      </trkpt>
      <trkpt lat="43.94894" lon="2.3663">
        <ele>251.04</ele>
        <time>2020-02-23T12:30:00Z</time>
      </trkpt>
      <trkpt lat="43.94902" lon="2.36619">
        <ele>251.52</ele>
        <time>2020-02-23T12:30:10Z</time>
      </trkpt>
      <trkpt lat="43.94908" lon="2.3661">
        <ele>252</ele>
        <time>2020-02-23T12:30:17Z</time>
      </trkpt>
      <trkpt lat="43.94916" lon="2.36602">
        <ele>252.48</ele>
        <time>2020-02-23T12:30:25Z</time>
      </trkpt>
      <trkpt lat="43.94916" lon="2.36605">
        <ele>253.44</ele>
        <time>2020-02-23T12:30:32Z</time>
      </trkpt>
      <trkpt lat="43.94916" lon="2.36607">
        <ele>253.44</ele>
        <time>2020-02-23T12:30:34Z</time>
      </trkpt>
      <trkpt lat="43.94912" lon="2.36616">
        <ele>254.41</ele>
        <time>2020-02-23T12:30:42Z</time>
      </trkpt>
      <trkpt lat="43.94911" lon="2.36625">
        <ele>253.93</ele>
        <time>2020-02-23T12:30:49Z</time>
      </trkpt>
      <trkpt lat="43.94909" lon="2.36633">
        <ele>253.93</ele>
        <time>2020-02-23T12:30:56Z</time>
      </trkpt>
      <trkpt lat="43.94908" lon="2.36645">
        <ele>254.89</ele>
        <time>2020-02-23T12:31:03Z</time>
      </trkpt>
      <trkpt lat="43.94908" lon="2.36648">
        <ele>254.89</ele>
        <time>2020-02-23T12:31:05Z</time>
      </trkpt>
      <trkpt lat="43.94909" lon="2.36661">
        <ele>256.33</ele>
        <time>2020-02-23T12:31:14Z</time>
      </trkpt>
      <trkpt lat="43.94909" lon="2.36662">
        <ele>256.33</ele>
        <time>2020-02-23T12:31:15Z</time>
      </trkpt>
      <trkpt lat="43.94909" lon="2.36669">
        <ele>257.29</ele>
        <time>2020-02-23T12:31:18Z</time>
      </trkpt>
      <trkpt lat="43.94911" lon="2.36685">
        <ele>259.69</ele>
        <time>2020-02-23T12:31:27Z</time>
      </trkpt>
      <trkpt lat="43.94912" lon="2.36698">
        <ele>261.62</ele>
        <time>2020-02-23T12:31:36Z</time>
      </trkpt>
      <trkpt lat="43.94914" lon="2.36703">
        <ele>262.1</ele>
        <time>2020-02-23T12:31:40Z</time>
      </trkpt>
      <trkpt lat="43.94917" lon="2.36704">
        <ele>266.42</ele>
        <time>2020-02-23T12:31:47Z</time>
      </trkpt>
      <trkpt lat="43.94918" lon="2.36699">
        <ele>270.75</ele>
        <time>2020-02-23T12:31:54Z</time>
      </trkpt>
      <trkpt lat="43.94921" lon="2.3669">
        <ele>273.15</ele>
        <time>2020-02-23T12:32:03Z</time>
      </trkpt>
      <trkpt lat="43.94926" lon="2.36675">
        <ele>275.56</ele>
        <time>2020-02-23T12:32:14Z</time>
      </trkpt>
      <trkpt lat="43.94932" lon="2.36664">
        <ele>277</ele>
        <time>2020-02-23T12:32:22Z</time>
      </trkpt>
      <trkpt lat="43.94938" lon="2.36654">
        <ele>279.4</ele>
        <time>2020-02-23T12:32:30Z</time>
      </trkpt>
      <trkpt lat="43.94944" lon="2.36646">
        <ele>279.4</ele>
        <time>2020-02-23T12:32:38Z</time>
      </trkpt>
      <trkpt lat="43.94947" lon="2.36644">
        <ele>278.92</ele>
        <time>2020-02-23T12:32:41Z</time>
      </trkpt>
      <trkpt lat="43.94955" lon="2.36635">
        <ele>278.92</ele>
        <time>2020-02-23T12:32:49Z</time>
      </trkpt>
      <trkpt lat="43.94962" lon="2.3663">
        <ele>278.92</ele>
        <time>2020-02-23T12:32:56Z</time>
      </trkpt>
      <trkpt lat="43.9497" lon="2.36621">
        <ele>278.92</ele>
        <time>2020-02-23T12:33:05Z</time>
      </trkpt>
      <trkpt lat="43.94978" lon="2.3661">
        <ele>280.84</ele>
        <time>2020-02-23T12:33:13Z</time>
      </trkpt>
      <trkpt lat="43.94986" lon="2.36602">
        <ele>283.73</ele>
        <time>2020-02-23T12:33:20Z</time>
      </trkpt>
      <trkpt lat="43.94994" lon="2.36594">
        <ele>288.05</ele>
        <time>2020-02-23T12:33:28Z</time>
      </trkpt>
      <trkpt lat="43.95001" lon="2.36588">
        <ele>290.94</ele>
        <time>2020-02-23T12:33:35Z</time>
      </trkpt>
      <trkpt lat="43.95008" lon="2.36583">
        <ele>293.34</ele>
        <time>2020-02-23T12:33:42Z</time>
      </trkpt>
      <trkpt lat="43.95014" lon="2.36577">
        <ele>294.78</ele>
        <time>2020-02-23T12:33:50Z</time>
      </trkpt>
      <trkpt lat="43.95022" lon="2.36572">
        <ele>295.26</ele>
        <time>2020-02-23T12:33:57Z</time>
      </trkpt>
      <trkpt lat="43.9503" lon="2.36566">
        <ele>294.78</ele>
        <time>2020-02-23T12:34:05Z</time>
      </trkpt>
      <trkpt lat="43.95034" lon="2.36564">
        <ele>294.3</ele>
        <time>2020-02-23T12:34:08Z</time>
      </trkpt>
      <trkpt lat="43.95044" lon="2.36552">
        <ele>290.94</ele>
        <time>2020-02-23T12:34:18Z</time>
      </trkpt>
      <trkpt lat="43.9505" lon="2.3654">
        <ele>289.97</ele>
        <time>2020-02-23T12:34:26Z</time>
      </trkpt>
      <trkpt lat="43.95054" lon="2.36527">
        <ele>294.3</ele>
        <time>2020-02-23T12:34:32Z</time>
      </trkpt>
      <trkpt lat="43.95053" lon="2.36511">
        <ele>294.78</ele>
        <time>2020-02-23T12:34:39Z</time>
      </trkpt>
      <trkpt lat="43.95057" lon="2.36495">
        <ele>295.74</ele>
        <time>2020-02-23T12:34:47Z</time>
      </trkpt>
      <trkpt lat="43.95057" lon="2.36494">
        <ele>295.26</ele>
        <time>2020-02-23T12:34:48Z</time>
      </trkpt>
      <trkpt lat="43.95063" lon="2.36485">
        <ele>293.82</ele>
        <time>2020-02-23T12:34:55Z</time>
      </trkpt>
      <trkpt lat="43.95068" lon="2.36468">
        <ele>291.42</ele>
        <time>2020-02-23T12:35:05Z</time>
      </trkpt>
      <trkpt lat="43.95071" lon="2.36456">
        <ele>289.97</ele>
        <time>2020-02-23T12:35:12Z</time>
      </trkpt>
      <trkpt lat="43.9508" lon="2.36448">
        <ele>289.97</ele>
        <time>2020-02-23T12:35:19Z</time>
      </trkpt>
      <trkpt lat="43.95087" lon="2.36439">
        <ele>289.49</ele>
        <time>2020-02-23T12:35:26Z</time>
      </trkpt>
      <trkpt lat="43.95093" lon="2.36429">
        <ele>289.01</ele>
        <time>2020-02-23T12:35:33Z</time>
      </trkpt>
      <trkpt lat="43.951" lon="2.36419">
        <ele>288.05</ele>
        <time>2020-02-23T12:35:41Z</time>
      </trkpt>
      <trkpt lat="43.95103" lon="2.36414">
        <ele>287.09</ele>
        <time>2020-02-23T12:35:44Z</time>
      </trkpt>
      <trkpt lat="43.95108" lon="2.36397">
        <ele>284.69</ele>
        <time>2020-02-23T12:35:51Z</time>
      </trkpt>
      <trkpt lat="43.95107" lon="2.36391">
        <ele>283.25</ele>
        <time>2020-02-23T12:35:54Z</time>
      </trkpt>
      <trkpt lat="43.95106" lon="2.36383">
        <ele>280.36</ele>
        <time>2020-02-23T12:36:00Z</time>
      </trkpt>
      <trkpt lat="43.951" lon="2.36373">
        <ele>276.04</ele>
        <time>2020-02-23T12:36:08Z</time>
      </trkpt>
      <trkpt lat="43.95096" lon="2.36361">
        <ele>272.67</ele>
        <time>2020-02-23T12:36:14Z</time>
      </trkpt>
      <trkpt lat="43.95091" lon="2.36354">
        <ele>267.86</ele>
        <time>2020-02-23T12:36:23Z</time>
      </trkpt>
      <trkpt lat="43.95085" lon="2.36356">
        <ele>264.98</ele>
        <time>2020-02-23T12:36:30Z</time>
      </trkpt>
      <trkpt lat="43.95077" lon="2.36356">
        <ele>264.98</ele>
        <time>2020-02-23T12:36:37Z</time>
      </trkpt>
      <trkpt lat="43.95065" lon="2.36359">
        <ele>269.79</ele>
        <time>2020-02-23T12:36:46Z</time>
      </trkpt>
      <trkpt lat="43.95056" lon="2.36361">
        <ele>273.15</ele>
        <time>2020-02-23T12:36:54Z</time>
      </trkpt>
      <trkpt lat="43.95043" lon="2.36364">
        <ele>280.36</ele>
        <time>2020-02-23T12:37:02Z</time>
      </trkpt>
      <trkpt lat="43.9504" lon="2.36364">
        <ele>283.73</ele>
        <time>2020-02-23T12:37:04Z</time>
      </trkpt>
      <trkpt lat="43.9504" lon="2.36362">
        <ele>285.65</ele>
        <time>2020-02-23T12:37:06Z</time>
      </trkpt>
      <trkpt lat="43.95045" lon="2.36358">
        <ele>292.38</ele>
        <time>2020-02-23T12:37:15Z</time>
      </trkpt>
      <trkpt lat="43.95052" lon="2.36355">
        <ele>299.11</ele>
        <time>2020-02-23T12:37:22Z</time>
      </trkpt>
      <trkpt lat="43.95056" lon="2.36353">
        <ele>306.32</ele>
        <time>2020-02-23T12:37:28Z</time>
      </trkpt>
      <trkpt lat="43.9506" lon="2.36349">
        <ele>312.09</ele>
        <time>2020-02-23T12:37:36Z</time>
      </trkpt>
      <trkpt lat="43.95061" lon="2.36345">
        <ele>313.53</ele>
        <time>2020-02-23T12:37:40Z</time>
      </trkpt>
      <trkpt lat="43.95064" lon="2.36338">
        <ele>315.45</ele>
        <time>2020-02-23T12:37:46Z</time>
      </trkpt>
      <trkpt lat="43.95068" lon="2.3633">
        <ele>317.37</ele>
        <time>2020-02-23T12:37:52Z</time>
      </trkpt>
      <trkpt lat="43.95071" lon="2.36327">
        <ele>317.85</ele>
        <time>2020-02-23T12:37:54Z</time>
      </trkpt>
      <trkpt lat="43.95075" lon="2.36315">
        <ele>318.81</ele>
        <time>2020-02-23T12:38:02Z</time>
      </trkpt>
      <trkpt lat="43.95081" lon="2.36302">
        <ele>320.26</ele>
        <time>2020-02-23T12:38:11Z</time>
      </trkpt>
      <trkpt lat="43.95082" lon="2.36301">
        <ele>320.74</ele>
        <time>2020-02-23T12:38:12Z</time>
      </trkpt>
      <trkpt lat="43.95092" lon="2.36307">
        <ele>322.18</ele>
        <time>2020-02-23T12:38:20Z</time>
      </trkpt>
      <trkpt lat="43.95097" lon="2.36314">
        <ele>324.1</ele>
        <time>2020-02-23T12:38:27Z</time>
      </trkpt>
      <trkpt lat="43.951" lon="2.36316">
        <ele>325.06</ele>
        <time>2020-02-23T12:38:31Z</time>
      </trkpt>
      <trkpt lat="43.9511" lon="2.36316">
        <ele>326.02</ele>
        <time>2020-02-23T12:38:40Z</time>
      </trkpt>
      <trkpt lat="43.95115" lon="2.36315">
        <ele>327.47</ele>
        <time>2020-02-23T12:38:47Z</time>
      </trkpt>
      <trkpt lat="43.95119" lon="2.36314">
        <ele>327.47</ele>
        <time>2020-02-23T12:38:53Z</time>
      </trkpt>
      <trkpt lat="43.95128" lon="2.36308">
        <ele>329.39</ele>
        <time>2020-02-23T12:39:02Z</time>
      </trkpt>
      <trkpt lat="43.95133" lon="2.36303">
        <ele>329.39</ele>
        <time>2020-02-23T12:39:10Z</time>
      </trkpt>
      <trkpt lat="43.95142" lon="2.36297">
        <ele>332.27</ele>
        <time>2020-02-23T12:39:17Z</time>
      </trkpt>
      <trkpt lat="43.95151" lon="2.36292">
        <ele>332.27</ele>
        <time>2020-02-23T12:39:26Z</time>
      </trkpt>
      <trkpt lat="43.9516" lon="2.36285">
        <ele>332.75</ele>
        <time>2020-02-23T12:39:34Z</time>
      </trkpt>
      <trkpt lat="43.95168" lon="2.36278">
        <ele>335.16</ele>
        <time>2020-02-23T12:39:42Z</time>
      </trkpt>
      <trkpt lat="43.95181" lon="2.36272">
        <ele>342.37</ele>
        <time>2020-02-23T12:39:50Z</time>
      </trkpt>
      <trkpt lat="43.95189" lon="2.36265">
        <ele>349.58</ele>
        <time>2020-02-23T12:39:57Z</time>
      </trkpt>
      <trkpt lat="43.95194" lon="2.36258">
        <ele>352.46</ele>
        <time>2020-02-23T12:40:04Z</time>
      </trkpt>
      <trkpt lat="43.95199" lon="2.36254">
        <ele>354.38</ele>
        <time>2020-02-23T12:40:10Z</time>
      </trkpt>
      <trkpt lat="43.95205" lon="2.36254">
        <ele>353.42</ele>
        <time>2020-02-23T12:40:16Z</time>
      </trkpt>
      <trkpt lat="43.95212" lon="2.36254">
        <ele>351.02</ele>
        <time>2020-02-23T12:40:23Z</time>
      </trkpt>
      <trkpt lat="43.9522" lon="2.36256">
        <ele>349.1</ele>
        <time>2020-02-23T12:40:31Z</time>
      </trkpt>
      <trkpt lat="43.95231" lon="2.36255">
        <ele>349.58</ele>
        <time>2020-02-23T12:40:39Z</time>
      </trkpt>
      <trkpt lat="43.95239" lon="2.36251">
        <ele>347.65</ele>
        <time>2020-02-23T12:40:47Z</time>
      </trkpt>
      <trkpt lat="43.95248" lon="2.36249">
        <ele>348.13</ele>
        <time>2020-02-23T12:40:57Z</time>
      </trkpt>
      <trkpt lat="43.95255" lon="2.36247">
        <ele>348.62</ele>
        <time>2020-02-23T12:41:04Z</time>
      </trkpt>
      <trkpt lat="43.95264" lon="2.36247">
        <ele>350.06</ele>
        <time>2020-02-23T12:41:11Z</time>
      </trkpt>
      <trkpt lat="43.95272" lon="2.36246">
        <ele>353.9</ele>
        <time>2020-02-23T12:41:19Z</time>
      </trkpt>
      <trkpt lat="43.95279" lon="2.36239">
        <ele>355.83</ele>
        <time>2020-02-23T12:41:26Z</time>
      </trkpt>
      <trkpt lat="43.95284" lon="2.36234">
        <ele>357.75</ele>
        <time>2020-02-23T12:41:33Z</time>
      </trkpt>
      <trkpt lat="43.95288" lon="2.36231">
        <ele>362.55</ele>
        <time>2020-02-23T12:41:41Z</time>
      </trkpt>
      <trkpt lat="43.95295" lon="2.36223">
        <ele>366.4</ele>
        <time>2020-02-23T12:41:48Z</time>
      </trkpt>
      <trkpt lat="43.95304" lon="2.36213">
        <ele>368.8</ele>
        <time>2020-02-23T12:41:56Z</time>
      </trkpt>
      <trkpt lat="43.95308" lon="2.36202">
        <ele>371.21</ele>
        <time>2020-02-23T12:42:06Z</time>
      </trkpt>
      <trkpt lat="43.95315" lon="2.36189">
        <ele>374.57</ele>
        <time>2020-02-23T12:42:14Z</time>
      </trkpt>
      <trkpt lat="43.95324" lon="2.36175">
        <ele>376.97</ele>
        <time>2020-02-23T12:42:21Z</time>
      </trkpt>
      <trkpt lat="43.95329" lon="2.36164">
        <ele>380.82</ele>
        <time>2020-02-23T12:42:28Z</time>
      </trkpt>
      <trkpt lat="43.95333" lon="2.36155">
        <ele>383.22</ele>
        <time>2020-02-23T12:42:35Z</time>
      </trkpt>
      <trkpt lat="43.95338" lon="2.36141">
        <ele>384.18</ele>
        <time>2020-02-23T12:42:44Z</time>
      </trkpt>
      <trkpt lat="43.95339" lon="2.36133">
        <ele>383.7</ele>
        <time>2020-02-23T12:42:47Z</time>
      </trkpt>
      <trkpt lat="43.95342" lon="2.36123">
        <ele>383.22</ele>
        <time>2020-02-23T12:42:52Z</time>
      </trkpt>
      <trkpt lat="43.95347" lon="2.36108">
        <ele>384.66</ele>
        <time>2020-02-23T12:43:00Z</time>
      </trkpt>
      <trkpt lat="43.9535" lon="2.36096">
        <ele>384.66</ele>
        <time>2020-02-23T12:43:08Z</time>
      </trkpt>
      <trkpt lat="43.95354" lon="2.36089">
        <ele>385.15</ele>
        <time>2020-02-23T12:43:12Z</time>
      </trkpt>
      <trkpt lat="43.9536" lon="2.36071">
        <ele>385.63</ele>
        <time>2020-02-23T12:43:22Z</time>
      </trkpt>
      <trkpt lat="43.95367" lon="2.36054">
        <ele>385.63</ele>
        <time>2020-02-23T12:43:31Z</time>
      </trkpt>
      <trkpt lat="43.95373" lon="2.36039">
        <ele>387.07</ele>
        <time>2020-02-23T12:43:41Z</time>
      </trkpt>
      <trkpt lat="43.95378" lon="2.36027">
        <ele>386.11</ele>
        <time>2020-02-23T12:43:50Z</time>
      </trkpt>
      <trkpt lat="43.95383" lon="2.36015">
        <ele>386.59</ele>
        <time>2020-02-23T12:43:59Z</time>
      </trkpt>
      <trkpt lat="43.95384" lon="2.36011">
        <ele>387.07</ele>
        <time>2020-02-23T12:44:02Z</time>
      </trkpt>
      <trkpt lat="43.9539" lon="2.35997">
        <ele>388.51</ele>
        <time>2020-02-23T12:44:11Z</time>
      </trkpt>
      <trkpt lat="43.95392" lon="2.35994">
        <ele>388.51</ele>
        <time>2020-02-23T12:44:14Z</time>
      </trkpt>
      <trkpt lat="43.95398" lon="2.35982">
        <ele>388.51</ele>
        <time>2020-02-23T12:44:23Z</time>
      </trkpt>
      <trkpt lat="43.95402" lon="2.35973">
        <ele>388.51</ele>
        <time>2020-02-23T12:44:30Z</time>
      </trkpt>
      <trkpt lat="43.95407" lon="2.35965">
        <ele>388.51</ele>
        <time>2020-02-23T12:44:37Z</time>
      </trkpt>
      <trkpt lat="43.95418" lon="2.35953">
        <ele>391.87</ele>
        <time>2020-02-23T12:44:46Z</time>
      </trkpt>
      <trkpt lat="43.95424" lon="2.35949">
        <ele>392.84</ele>
        <time>2020-02-23T12:44:55Z</time>
      </trkpt>
      <trkpt lat="43.95429" lon="2.35946">
        <ele>393.32</ele>
        <time>2020-02-23T12:45:01Z</time>
      </trkpt>
      <trkpt lat="43.95435" lon="2.35939">
        <ele>394.76</ele>
        <time>2020-02-23T12:45:09Z</time>
      </trkpt>
      <trkpt lat="43.95441" lon="2.35929">
        <ele>397.64</ele>
        <time>2020-02-23T12:45:17Z</time>
      </trkpt>
      <trkpt lat="43.95448" lon="2.35916">
        <ele>400.53</ele>
        <time>2020-02-23T12:45:26Z</time>
      </trkpt>
      <trkpt lat="43.95453" lon="2.35905">
        <ele>402.93</ele>
        <time>2020-02-23T12:45:34Z</time>
      </trkpt>
      <trkpt lat="43.95457" lon="2.35891">
        <ele>404.85</ele>
        <time>2020-02-23T12:45:44Z</time>
      </trkpt>
      <trkpt lat="43.95462" lon="2.35876">
        <ele>405.81</ele>
        <time>2020-02-23T12:45:53Z</time>
      </trkpt>
      <trkpt lat="43.95467" lon="2.35863">
        <ele>407.26</ele>
        <time>2020-02-23T12:46:00Z</time>
      </trkpt>
      <trkpt lat="43.95474" lon="2.3585">
        <ele>409.18</ele>
        <time>2020-02-23T12:46:08Z</time>
      </trkpt>
      <trkpt lat="43.95478" lon="2.35838">
        <ele>410.14</ele>
        <time>2020-02-23T12:46:13Z</time>
      </trkpt>
      <trkpt lat="43.95485" lon="2.35821">
        <ele>412.54</ele>
        <time>2020-02-23T12:46:22Z</time>
      </trkpt>
      <trkpt lat="43.95491" lon="2.35808">
        <ele>413.98</ele>
        <time>2020-02-23T12:46:30Z</time>
      </trkpt>
      <trkpt lat="43.95497" lon="2.35795">
        <ele>413.98</ele>
        <time>2020-02-23T12:46:38Z</time>
      </trkpt>
      <trkpt lat="43.95503" lon="2.35776">
        <ele>412.06</ele>
        <time>2020-02-23T12:46:47Z</time>
      </trkpt>
      <trkpt lat="43.95506" lon="2.35752">
        <ele>410.62</ele>
        <time>2020-02-23T12:46:59Z</time>
      </trkpt>
      <trkpt lat="43.95508" lon="2.35729">
        <ele>409.66</ele>
        <time>2020-02-23T12:47:12Z</time>
      </trkpt>
      <trkpt lat="43.95513" lon="2.35711">
        <ele>410.14</ele>
        <time>2020-02-23T12:47:23Z</time>
      </trkpt>
      <trkpt lat="43.95517" lon="2.35694">
        <ele>410.14</ele>
        <time>2020-02-23T12:47:33Z</time>
      </trkpt>
      <trkpt lat="43.95527" lon="2.35672">
        <ele>412.06</ele>
        <time>2020-02-23T12:47:47Z</time>
      </trkpt>
      <trkpt lat="43.95536" lon="2.35649">
        <ele>411.1</ele>
        <time>2020-02-23T12:47:59Z</time>
      </trkpt>
      <trkpt lat="43.95545" lon="2.35631">
        <ele>410.62</ele>
        <time>2020-02-23T12:48:10Z</time>
      </trkpt>
      <trkpt lat="43.95559" lon="2.35606">
        <ele>408.22</ele>
        <time>2020-02-23T12:48:25Z</time>
      </trkpt>
      <trkpt lat="43.95569" lon="2.35592">
        <ele>405.81</ele>
        <time>2020-02-23T12:48:35Z</time>
      </trkpt>
      <trkpt lat="43.95577" lon="2.35578">
        <ele>403.41</ele>
        <time>2020-02-23T12:48:45Z</time>
      </trkpt>
      <trkpt lat="43.95586" lon="2.35563">
        <ele>403.89</ele>
        <time>2020-02-23T12:48:56Z</time>
      </trkpt>
      <trkpt lat="43.95594" lon="2.35547">
        <ele>403.89</ele>
        <time>2020-02-23T12:49:05Z</time>
      </trkpt>
      <trkpt lat="43.95601" lon="2.35531">
        <ele>403.89</ele>
        <time>2020-02-23T12:49:13Z</time>
      </trkpt>
      <trkpt lat="43.95607" lon="2.35511">
        <ele>404.37</ele>
        <time>2020-02-23T12:49:23Z</time>
      </trkpt>
      <trkpt lat="43.95618" lon="2.35497">
        <ele>405.33</ele>
        <time>2020-02-23T12:49:33Z</time>
      </trkpt>
      <trkpt lat="43.9563" lon="2.35488">
        <ele>406.29</ele>
        <time>2020-02-23T12:49:43Z</time>
      </trkpt>
      <trkpt lat="43.9564" lon="2.35482">
        <ele>407.26</ele>
        <time>2020-02-23T12:49:52Z</time>
      </trkpt>
      <trkpt lat="43.9565" lon="2.35476">
        <ele>407.74</ele>
        <time>2020-02-23T12:50:00Z</time>
      </trkpt>
      <trkpt lat="43.95657" lon="2.3547">
        <ele>406.29</ele>
        <time>2020-02-23T12:50:06Z</time>
      </trkpt>
      <trkpt lat="43.95663" lon="2.35466">
        <ele>405.33</ele>
        <time>2020-02-23T12:50:11Z</time>
      </trkpt>
      <trkpt lat="43.95675" lon="2.35452">
        <ele>401.49</ele>
        <time>2020-02-23T12:50:21Z</time>
      </trkpt>
      <trkpt lat="43.95687" lon="2.3544">
        <ele>399.08</ele>
        <time>2020-02-23T12:50:30Z</time>
      </trkpt>
      <trkpt lat="43.95699" lon="2.35429">
        <ele>398.12</ele>
        <time>2020-02-23T12:50:39Z</time>
      </trkpt>
      <trkpt lat="43.95709" lon="2.35422">
        <ele>397.16</ele>
        <time>2020-02-23T12:50:47Z</time>
      </trkpt>
      <trkpt lat="43.95721" lon="2.35428">
        <ele>395.24</ele>
        <time>2020-02-23T12:50:56Z</time>
      </trkpt>
      <trkpt lat="43.95734" lon="2.35439">
        <ele>391.87</ele>
        <time>2020-02-23T12:51:05Z</time>
      </trkpt>
      <trkpt lat="43.95749" lon="2.35453">
        <ele>388.03</ele>
        <time>2020-02-23T12:51:17Z</time>
      </trkpt>
      <trkpt lat="43.95763" lon="2.35464">
        <ele>384.66</ele>
        <time>2020-02-23T12:51:27Z</time>
      </trkpt>
      <trkpt lat="43.95775" lon="2.35476">
        <ele>382.26</ele>
        <time>2020-02-23T12:51:36Z</time>
      </trkpt>
      <trkpt lat="43.9578" lon="2.35481">
        <ele>381.78</ele>
        <time>2020-02-23T12:51:40Z</time>
      </trkpt>
      <trkpt lat="43.95782" lon="2.35489">
        <ele>381.78</ele>
        <time>2020-02-23T12:51:44Z</time>
      </trkpt>
      <trkpt lat="43.95793" lon="2.35499">
        <ele>379.86</ele>
        <time>2020-02-23T12:51:54Z</time>
      </trkpt>
      <trkpt lat="43.95807" lon="2.35502">
        <ele>377.45</ele>
        <time>2020-02-23T12:52:02Z</time>
      </trkpt>
      <trkpt lat="43.95824" lon="2.35501">
        <ele>373.61</ele>
        <time>2020-02-23T12:52:12Z</time>
      </trkpt>
      <trkpt lat="43.95836" lon="2.35495">
        <ele>371.69</ele>
        <time>2020-02-23T12:52:21Z</time>
      </trkpt>
      <trkpt lat="43.95846" lon="2.35488">
        <ele>371.21</ele>
        <time>2020-02-23T12:52:28Z</time>
      </trkpt>
      <trkpt lat="43.95852" lon="2.35481">
        <ele>370.24</ele>
        <time>2020-02-23T12:52:33Z</time>
      </trkpt>
      <trkpt lat="43.9586" lon="2.35462">
        <ele>367.36</ele>
        <time>2020-02-23T12:52:43Z</time>
      </trkpt>
      <trkpt lat="43.95861" lon="2.3546">
        <ele>367.36</ele>
        <time>2020-02-23T12:52:44Z</time>
      </trkpt>
      <trkpt lat="43.95862" lon="2.35434">
        <ele>364.48</ele>
        <time>2020-02-23T12:52:56Z</time>
      </trkpt>
      <trkpt lat="43.95856" lon="2.35421">
        <ele>364.96</ele>
        <time>2020-02-23T12:53:04Z</time>
      </trkpt>
      <trkpt lat="43.95847" lon="2.35409">
        <ele>364</ele>
        <time>2020-02-23T12:53:13Z</time>
      </trkpt>
      <trkpt lat="43.9584" lon="2.35403">
        <ele>362.55</ele>
        <time>2020-02-23T12:53:20Z</time>
      </trkpt>
      <trkpt lat="43.95831" lon="2.35394">
        <ele>361.59</ele>
        <time>2020-02-23T12:53:27Z</time>
      </trkpt>
      <trkpt lat="43.95824" lon="2.35385">
        <ele>360.63</ele>
        <time>2020-02-23T12:53:33Z</time>
      </trkpt>
      <trkpt lat="43.95816" lon="2.35376">
        <ele>358.71</ele>
        <time>2020-02-23T12:53:42Z</time>
      </trkpt>
      <trkpt lat="43.95812" lon="2.35364">
        <ele>357.27</ele>
        <time>2020-02-23T12:53:49Z</time>
      </trkpt>
      <trkpt lat="43.95814" lon="2.35357">
        <ele>356.31</ele>
        <time>2020-02-23T12:53:52Z</time>
      </trkpt>
      <trkpt lat="43.95823" lon="2.35346">
        <ele>353.9</ele>
        <time>2020-02-23T12:54:01Z</time>
      </trkpt>
      <trkpt lat="43.95832" lon="2.35336">
        <ele>352.46</ele>
        <time>2020-02-23T12:54:10Z</time>
      </trkpt>
      <trkpt lat="43.95838" lon="2.35329">
        <ele>351.02</ele>
        <time>2020-02-23T12:54:16Z</time>
      </trkpt>
      <trkpt lat="43.95843" lon="2.3532">
        <ele>349.1</ele>
        <time>2020-02-23T12:54:24Z</time>
      </trkpt>
      <trkpt lat="43.95847" lon="2.35308">
        <ele>345.73</ele>
        <time>2020-02-23T12:54:32Z</time>
      </trkpt>
      <trkpt lat="43.95854" lon="2.35295">
        <ele>341.41</ele>
        <time>2020-02-23T12:54:41Z</time>
      </trkpt>
      <trkpt lat="43.95861" lon="2.35284">
        <ele>339</ele>
        <time>2020-02-23T12:54:48Z</time>
      </trkpt>
      <trkpt lat="43.95868" lon="2.35267">
        <ele>338.04</ele>
        <time>2020-02-23T12:54:57Z</time>
      </trkpt>
      <trkpt lat="43.95871" lon="2.35252">
        <ele>336.6</ele>
        <time>2020-02-23T12:55:06Z</time>
      </trkpt>
      <trkpt lat="43.95873" lon="2.3524">
        <ele>334.2</ele>
        <time>2020-02-23T12:55:12Z</time>
      </trkpt>
      <trkpt lat="43.95872" lon="2.35227">
        <ele>329.87</ele>
        <time>2020-02-23T12:55:20Z</time>
      </trkpt>
      <trkpt lat="43.95873" lon="2.35215">
        <ele>327.95</ele>
        <time>2020-02-23T12:55:28Z</time>
      </trkpt>
      <trkpt lat="43.9587" lon="2.35203">
        <ele>326.99</ele>
        <time>2020-02-23T12:55:34Z</time>
      </trkpt>
      <trkpt lat="43.95869" lon="2.35198">
        <ele>327.95</ele>
        <time>2020-02-23T12:55:40Z</time>
      </trkpt>
      <trkpt lat="43.95866" lon="2.35192">
        <ele>326.99</ele>
        <time>2020-02-23T12:55:49Z</time>
      </trkpt>
      <trkpt lat="43.95859" lon="2.35187">
        <ele>326.99</ele>
        <time>2020-02-23T12:55:58Z</time>
      </trkpt>
      <trkpt lat="43.95855" lon="2.35178">
        <ele>326.5</ele>
        <time>2020-02-23T12:56:05Z</time>
      </trkpt>
      <trkpt lat="43.95859" lon="2.35167">
        <ele>325.06</ele>
        <time>2020-02-23T12:56:11Z</time>
      </trkpt>
      <trkpt lat="43.95865" lon="2.35162">
        <ele>324.58</ele>
        <time>2020-02-23T12:56:18Z</time>
      </trkpt>
      <trkpt lat="43.95866" lon="2.35161">
        <ele>324.1</ele>
        <time>2020-02-23T12:56:19Z</time>
      </trkpt>
      <trkpt lat="43.95869" lon="2.3515">
        <ele>320.26</ele>
        <time>2020-02-23T12:56:26Z</time>
      </trkpt>
      <trkpt lat="43.9587" lon="2.35148">
        <ele>319.3</ele>
        <time>2020-02-23T12:56:27Z</time>
      </trkpt>
      <trkpt lat="43.95871" lon="2.35138">
        <ele>316.41</ele>
        <time>2020-02-23T12:56:33Z</time>
      </trkpt>
      <trkpt lat="43.95868" lon="2.35125">
        <ele>312.09</ele>
        <time>2020-02-23T12:56:40Z</time>
      </trkpt>
      <trkpt lat="43.95866" lon="2.35107">
        <ele>310.16</ele>
        <time>2020-02-23T12:56:47Z</time>
      </trkpt>
      <trkpt lat="43.95864" lon="2.35093">
        <ele>307.28</ele>
        <time>2020-02-23T12:56:54Z</time>
      </trkpt>
      <trkpt lat="43.95862" lon="2.35079">
        <ele>305.36</ele>
        <time>2020-02-23T12:57:02Z</time>
      </trkpt>
      <trkpt lat="43.95862" lon="2.35071">
        <ele>303.43</ele>
        <time>2020-02-23T12:57:07Z</time>
      </trkpt>
      <trkpt lat="43.95861" lon="2.3505">
        <ele>304.88</ele>
        <time>2020-02-23T12:57:15Z</time>
      </trkpt>
      <trkpt lat="43.9586" lon="2.35035">
        <ele>302.47</ele>
        <time>2020-02-23T12:57:23Z</time>
      </trkpt>
      <trkpt lat="43.95855" lon="2.35022">
        <ele>297.67</ele>
        <time>2020-02-23T12:57:30Z</time>
      </trkpt>
      <trkpt lat="43.95849" lon="2.35005">
        <ele>291.9</ele>
        <time>2020-02-23T12:57:40Z</time>
      </trkpt>
      <trkpt lat="43.95846" lon="2.3499">
        <ele>290.46</ele>
        <time>2020-02-23T12:57:47Z</time>
      </trkpt>
      <trkpt lat="43.95846" lon="2.34987">
        <ele>290.94</ele>
        <time>2020-02-23T12:57:48Z</time>
      </trkpt>
      <trkpt lat="43.95845" lon="2.34979">
        <ele>291.42</ele>
        <time>2020-02-23T12:57:51Z</time>
      </trkpt>
      <trkpt lat="43.9585" lon="2.34966">
        <ele>289.49</ele>
        <time>2020-02-23T12:57:59Z</time>
      </trkpt>
      <trkpt lat="43.95856" lon="2.34963">
        <ele>288.05</ele>
        <time>2020-02-23T12:58:05Z</time>
      </trkpt>
      <trkpt lat="43.95874" lon="2.34958">
        <ele>288.05</ele>
        <time>2020-02-23T12:58:14Z</time>
      </trkpt>
      <trkpt lat="43.95885" lon="2.34961">
        <ele>288.05</ele>
        <time>2020-02-23T12:58:21Z</time>
      </trkpt>
      <trkpt lat="43.95888" lon="2.34961">
        <ele>287.57</ele>
        <time>2020-02-23T12:58:23Z</time>
      </trkpt>
      <trkpt lat="43.9589" lon="2.34953">
        <ele>287.09</ele>
        <time>2020-02-23T12:58:30Z</time>
      </trkpt>
      <trkpt lat="43.95889" lon="2.34952">
        <ele>286.61</ele>
        <time>2020-02-23T12:58:31Z</time>
      </trkpt>
      <trkpt lat="43.95883" lon="2.34953">
        <ele>283.73</ele>
        <time>2020-02-23T12:58:40Z</time>
      </trkpt>
      <trkpt lat="43.95874" lon="2.34952">
        <ele>281.8</ele>
        <time>2020-02-23T12:58:47Z</time>
      </trkpt>
      <trkpt lat="43.95867" lon="2.34945">
        <ele>280.36</ele>
        <time>2020-02-23T12:58:54Z</time>
      </trkpt>
      <trkpt lat="43.95869" lon="2.34937">
        <ele>279.88</ele>
        <time>2020-02-23T12:58:59Z</time>
      </trkpt>
      <trkpt lat="43.95878" lon="2.34931">
        <ele>278.92</ele>
        <time>2020-02-23T12:59:07Z</time>
      </trkpt>
      <trkpt lat="43.95889" lon="2.34923">
        <ele>277</ele>
        <time>2020-02-23T12:59:15Z</time>
      </trkpt>
      <trkpt lat="43.95896" lon="2.3492">
        <ele>275.07</ele>
        <time>2020-02-23T12:59:22Z</time>
      </trkpt>
      <trkpt lat="43.959" lon="2.3492">
        <ele>273.63</ele>
        <time>2020-02-23T12:59:26Z</time>
      </trkpt>
      <trkpt lat="43.9591" lon="2.34923">
        <ele>271.71</ele>
        <time>2020-02-23T12:59:34Z</time>
      </trkpt>
      <trkpt lat="43.95913" lon="2.3493">
        <ele>270.27</ele>
        <time>2020-02-23T12:59:41Z</time>
      </trkpt>
      <trkpt lat="43.95915" lon="2.34939">
        <ele>266.9</ele>
        <time>2020-02-23T12:59:48Z</time>
      </trkpt>
      <trkpt lat="43.95919" lon="2.34944">
        <ele>262.58</ele>
        <time>2020-02-23T12:59:53Z</time>
      </trkpt>
      <trkpt lat="43.95924" lon="2.34952">
        <ele>258.73</ele>
        <time>2020-02-23T13:00:00Z</time>
      </trkpt>
      <trkpt lat="43.95923" lon="2.34951">
        <ele>258.25</ele>
        <time>2020-02-23T13:00:02Z</time>
      </trkpt>
      <trkpt lat="43.95924" lon="2.34946">
        <ele>255.37</ele>
        <time>2020-02-23T13:00:08Z</time>
      </trkpt>
      <trkpt lat="43.95925" lon="2.34931">
        <ele>252.96</ele>
        <time>2020-02-23T13:00:15Z</time>
      </trkpt>
      <trkpt lat="43.95926" lon="2.34929">
        <ele>252.48</ele>
        <time>2020-02-23T13:00:16Z</time>
      </trkpt>
      <trkpt lat="43.95931" lon="2.34918">
        <ele>251.04</ele>
        <time>2020-02-23T13:00:23Z</time>
      </trkpt>
      <trkpt lat="43.95936" lon="2.34908">
        <ele>249.6</ele>
        <time>2020-02-23T13:00:30Z</time>
      </trkpt>
      <trkpt lat="43.95943" lon="2.34897">
        <ele>249.6</ele>
        <time>2020-02-23T13:00:36Z</time>
      </trkpt>
      <trkpt lat="43.95952" lon="2.34879">
        <ele>249.12</ele>
        <time>2020-02-23T13:00:44Z</time>
      </trkpt>
      <trkpt lat="43.95955" lon="2.34875">
        <ele>251.04</ele>
        <time>2020-02-23T13:00:46Z</time>
      </trkpt>
      <trkpt lat="43.95953" lon="2.34864">
        <ele>253.44</ele>
        <time>2020-02-23T13:00:53Z</time>
      </trkpt>
      <trkpt lat="43.9595" lon="2.34861">
        <ele>253.93</ele>
        <time>2020-02-23T13:00:55Z</time>
      </trkpt>
      <trkpt lat="43.95941" lon="2.34846">
        <ele>253.44</ele>
        <time>2020-02-23T13:01:04Z</time>
      </trkpt>
      <trkpt lat="43.95936" lon="2.34835">
        <ele>252.96</ele>
        <time>2020-02-23T13:01:10Z</time>
      </trkpt>
      <trkpt lat="43.95928" lon="2.34821">
        <ele>253.44</ele>
        <time>2020-02-23T13:01:16Z</time>
      </trkpt>
      <trkpt lat="43.95924" lon="2.34812">
        <ele>252.96</ele>
        <time>2020-02-23T13:01:22Z</time>
      </trkpt>
      <trkpt lat="43.95923" lon="2.34811">
        <ele>252.96</ele>
        <time>2020-02-23T13:01:23Z</time>
      </trkpt>
      <trkpt lat="43.95911" lon="2.34811">
        <ele>253.44</ele>
        <time>2020-02-23T13:01:33Z</time>
      </trkpt>
      <trkpt lat="43.95905" lon="2.34808">
        <ele>253.44</ele>
        <time>2020-02-23T13:01:41Z</time>
      </trkpt>
      <trkpt lat="43.95899" lon="2.34806">
        <ele>255.37</ele>
        <time>2020-02-23T13:01:50Z</time>
      </trkpt>
      <trkpt lat="43.9589" lon="2.34805">
        <ele>261.14</ele>
        <time>2020-02-23T13:02:00Z</time>
      </trkpt>
      <trkpt lat="43.95888" lon="2.34806">
        <ele>261.14</ele>
        <time>2020-02-23T13:02:01Z</time>
      </trkpt>
      <trkpt lat="43.95878" lon="2.34805">
        <ele>261.62</ele>
        <time>2020-02-23T13:02:09Z</time>
      </trkpt>
      <trkpt lat="43.95873" lon="2.34797">
        <ele>261.62</ele>
        <time>2020-02-23T13:02:17Z</time>
      </trkpt>
      <trkpt lat="43.95869" lon="2.34783">
        <ele>261.62</ele>
        <time>2020-02-23T13:02:26Z</time>
      </trkpt>
      <trkpt lat="43.95868" lon="2.34771">
        <ele>262.58</ele>
        <time>2020-02-23T13:02:33Z</time>
      </trkpt>
      <trkpt lat="43.95868" lon="2.34768">
        <ele>263.54</ele>
        <time>2020-02-23T13:02:35Z</time>
      </trkpt>
      <trkpt lat="43.95873" lon="2.34751">
        <ele>264.98</ele>
        <time>2020-02-23T13:02:44Z</time>
      </trkpt>
      <trkpt lat="43.95878" lon="2.34735">
        <ele>266.42</ele>
        <time>2020-02-23T13:02:54Z</time>
      </trkpt>
      <trkpt lat="43.95886" lon="2.34725">
        <ele>267.38</ele>
        <time>2020-02-23T13:03:03Z</time>
      </trkpt>
      <trkpt lat="43.95891" lon="2.34721">
        <ele>267.38</ele>
        <time>2020-02-23T13:03:10Z</time>
      </trkpt>
      <trkpt lat="43.95901" lon="2.34719">
        <ele>267.38</ele>
        <time>2020-02-23T13:03:19Z</time>
      </trkpt>
      <trkpt lat="43.95914" lon="2.34715">
        <ele>269.79</ele>
        <time>2020-02-23T13:03:28Z</time>
      </trkpt>
      <trkpt lat="43.95924" lon="2.34712">
        <ele>272.19</ele>
        <time>2020-02-23T13:03:36Z</time>
      </trkpt>
      <trkpt lat="43.95928" lon="2.34711">
        <ele>273.15</ele>
        <time>2020-02-23T13:03:40Z</time>
      </trkpt>
      <trkpt lat="43.95935" lon="2.34711">
        <ele>274.11</ele>
        <time>2020-02-23T13:03:44Z</time>
      </trkpt>
      <trkpt lat="43.95946" lon="2.34708">
        <ele>276.52</ele>
        <time>2020-02-23T13:03:53Z</time>
      </trkpt>
      <trkpt lat="43.95947" lon="2.34708">
        <ele>276.52</ele>
        <time>2020-02-23T13:03:54Z</time>
      </trkpt>
      <trkpt lat="43.95956" lon="2.34712">
        <ele>277.96</ele>
        <time>2020-02-23T13:04:01Z</time>
      </trkpt>
      <trkpt lat="43.95963" lon="2.34715">
        <ele>279.88</ele>
        <time>2020-02-23T13:04:08Z</time>
      </trkpt>
      <trkpt lat="43.95968" lon="2.34716">
        <ele>279.88</ele>
        <time>2020-02-23T13:04:14Z</time>
      </trkpt>
      <trkpt lat="43.95979" lon="2.34709">
        <ele>281.32</ele>
        <time>2020-02-23T13:04:23Z</time>
      </trkpt>
      <trkpt lat="43.95987" lon="2.34704">
        <ele>282.77</ele>
        <time>2020-02-23T13:04:29Z</time>
      </trkpt>
      <trkpt lat="43.95994" lon="2.347">
        <ele>286.61</ele>
        <time>2020-02-23T13:04:35Z</time>
      </trkpt>
      <trkpt lat="43.95999" lon="2.34697">
        <ele>290.46</ele>
        <time>2020-02-23T13:04:41Z</time>
      </trkpt>
      <trkpt lat="43.96002" lon="2.34694">
        <ele>296.22</ele>
        <time>2020-02-23T13:04:49Z</time>
      </trkpt>
      <trkpt lat="43.96013" lon="2.3468">
        <ele>298.63</ele>
        <time>2020-02-23T13:04:56Z</time>
      </trkpt>
      <trkpt lat="43.96017" lon="2.34672">
        <ele>301.03</ele>
        <time>2020-02-23T13:05:05Z</time>
      </trkpt>
      <trkpt lat="43.96022" lon="2.3467">
        <ele>303.91</ele>
        <time>2020-02-23T13:05:13Z</time>
      </trkpt>
      <trkpt lat="43.96022" lon="2.34674">
        <ele>303.43</ele>
        <time>2020-02-23T13:05:19Z</time>
      </trkpt>
      <trkpt lat="43.96022" lon="2.34687">
        <ele>302.47</ele>
        <time>2020-02-23T13:05:29Z</time>
      </trkpt>
      <trkpt lat="43.96025" lon="2.34702">
        <ele>302.47</ele>
        <time>2020-02-23T13:05:37Z</time>
      </trkpt>
      <trkpt lat="43.96026" lon="2.34705">
        <ele>302.95</ele>
        <time>2020-02-23T13:05:39Z</time>
      </trkpt>
      <trkpt lat="43.9603" lon="2.34717">
        <ele>303.91</ele>
        <time>2020-02-23T13:05:47Z</time>
      </trkpt>
      <trkpt lat="43.96037" lon="2.34719">
        <ele>305.36</ele>
        <time>2020-02-23T13:05:55Z</time>
      </trkpt>
      <trkpt lat="43.9604" lon="2.3471">
        <ele>306.32</ele>
        <time>2020-02-23T13:06:03Z</time>
      </trkpt>
      <trkpt lat="43.96045" lon="2.34696">
        <ele>306.8</ele>
        <time>2020-02-23T13:06:11Z</time>
      </trkpt>
      <trkpt lat="43.96051" lon="2.3468">
        <ele>308.24</ele>
        <time>2020-02-23T13:06:20Z</time>
      </trkpt>
      <trkpt lat="43.96054" lon="2.34667">
        <ele>311.12</ele>
        <time>2020-02-23T13:06:28Z</time>
      </trkpt>
      <trkpt lat="43.96055" lon="2.34662">
        <ele>311.6</ele>
        <time>2020-02-23T13:06:31Z</time>
      </trkpt>
      <trkpt lat="43.9606" lon="2.34651">
        <ele>312.09</ele>
        <time>2020-02-23T13:06:40Z</time>
      </trkpt>
      <trkpt lat="43.96064" lon="2.34643">
        <ele>311.6</ele>
        <time>2020-02-23T13:06:47Z</time>
      </trkpt>
      <trkpt lat="43.96068" lon="2.34626">
        <ele>312.57</ele>
        <time>2020-02-23T13:06:57Z</time>
      </trkpt>
      <trkpt lat="43.96072" lon="2.34614">
        <ele>312.09</ele>
        <time>2020-02-23T13:07:05Z</time>
      </trkpt>
      <trkpt lat="43.96077" lon="2.34601">
        <ele>314.49</ele>
        <time>2020-02-23T13:07:14Z</time>
      </trkpt>
      <trkpt lat="43.9608" lon="2.34593">
        <ele>314.49</ele>
        <time>2020-02-23T13:07:23Z</time>
      </trkpt>
      <trkpt lat="43.9609" lon="2.34584">
        <ele>317.37</ele>
        <time>2020-02-23T13:07:29Z</time>
      </trkpt>
      <trkpt lat="43.96092" lon="2.34571">
        <ele>319.3</ele>
        <time>2020-02-23T13:07:36Z</time>
      </trkpt>
      <trkpt lat="43.96095" lon="2.34558">
        <ele>321.7</ele>
        <time>2020-02-23T13:07:42Z</time>
      </trkpt>
      <trkpt lat="43.96099" lon="2.34544">
        <ele>323.62</ele>
        <time>2020-02-23T13:07:49Z</time>
      </trkpt>
      <trkpt lat="43.96101" lon="2.34535">
        <ele>323.14</ele>
        <time>2020-02-23T13:07:56Z</time>
      </trkpt>
      <trkpt lat="43.96107" lon="2.34522">
        <ele>325.54</ele>
        <time>2020-02-23T13:08:05Z</time>
      </trkpt>
      <trkpt lat="43.96114" lon="2.34515">
        <ele>328.43</ele>
        <time>2020-02-23T13:08:14Z</time>
      </trkpt>
      <trkpt lat="43.96119" lon="2.3451">
        <ele>330.83</ele>
        <time>2020-02-23T13:08:19Z</time>
      </trkpt>
      <trkpt lat="43.96127" lon="2.345">
        <ele>333.71</ele>
        <time>2020-02-23T13:08:27Z</time>
      </trkpt>
      <trkpt lat="43.96132" lon="2.34492">
        <ele>338.04</ele>
        <time>2020-02-23T13:08:35Z</time>
      </trkpt>
      <trkpt lat="43.96136" lon="2.34487">
        <ele>339.48</ele>
        <time>2020-02-23T13:08:41Z</time>
      </trkpt>
      <trkpt lat="43.9614" lon="2.34489">
        <ele>340.92</ele>
        <time>2020-02-23T13:08:45Z</time>
      </trkpt>
      <trkpt lat="43.96137" lon="2.345">
        <ele>344.29</ele>
        <time>2020-02-23T13:08:55Z</time>
      </trkpt>
      <trkpt lat="43.96136" lon="2.34502">
        <ele>344.77</ele>
        <time>2020-02-23T13:08:57Z</time>
      </trkpt>
      <trkpt lat="43.96136" lon="2.34507">
        <ele>344.29</ele>
        <time>2020-02-23T13:09:00Z</time>
      </trkpt>
      <trkpt lat="43.96132" lon="2.34521">
        <ele>343.81</ele>
        <time>2020-02-23T13:09:10Z</time>
      </trkpt>
      <trkpt lat="43.96133" lon="2.3453">
        <ele>344.29</ele>
        <time>2020-02-23T13:09:18Z</time>
      </trkpt>
      <trkpt lat="43.96136" lon="2.3453">
        <ele>344.77</ele>
        <time>2020-02-23T13:09:23Z</time>
      </trkpt>
      <trkpt lat="43.96142" lon="2.3452">
        <ele>343.81</ele>
        <time>2020-02-23T13:09:32Z</time>
      </trkpt>
      <trkpt lat="43.9615" lon="2.34515">
        <ele>341.41</ele>
        <time>2020-02-23T13:09:41Z</time>
      </trkpt>
      <trkpt lat="43.96153" lon="2.34508">
        <ele>340.44</ele>
        <time>2020-02-23T13:09:46Z</time>
      </trkpt>
      <trkpt lat="43.96158" lon="2.345">
        <ele>339</ele>
        <time>2020-02-23T13:09:53Z</time>
      </trkpt>
      <trkpt lat="43.96163" lon="2.34492">
        <ele>339</ele>
        <time>2020-02-23T13:10:01Z</time>
      </trkpt>
      <trkpt lat="43.96172" lon="2.34482">
        <ele>341.89</ele>
        <time>2020-02-23T13:10:09Z</time>
      </trkpt>
      <trkpt lat="43.96176" lon="2.34474">
        <ele>343.33</ele>
        <time>2020-02-23T13:10:16Z</time>
      </trkpt>
      <trkpt lat="43.96188" lon="2.34462">
        <ele>347.65</ele>
        <time>2020-02-23T13:10:25Z</time>
      </trkpt>
      <trkpt lat="43.96189" lon="2.3446">
        <ele>347.65</ele>
        <time>2020-02-23T13:10:27Z</time>
      </trkpt>
      <trkpt lat="43.96202" lon="2.34447">
        <ele>351.02</ele>
        <time>2020-02-23T13:10:39Z</time>
      </trkpt>
      <trkpt lat="43.96209" lon="2.34442">
        <ele>353.42</ele>
        <time>2020-02-23T13:10:48Z</time>
      </trkpt>
      <trkpt lat="43.96211" lon="2.3445">
        <ele>357.27</ele>
        <time>2020-02-23T13:10:59Z</time>
      </trkpt>
      <trkpt lat="43.96204" lon="2.3447">
        <ele>360.15</ele>
        <time>2020-02-23T13:11:10Z</time>
      </trkpt>
      <trkpt lat="43.96201" lon="2.34481">
        <ele>360.63</ele>
        <time>2020-02-23T13:11:18Z</time>
      </trkpt>
      <trkpt lat="43.962" lon="2.34494">
        <ele>360.15</ele>
        <time>2020-02-23T13:11:27Z</time>
      </trkpt>
      <trkpt lat="43.96199" lon="2.34509">
        <ele>361.11</ele>
        <time>2020-02-23T13:11:35Z</time>
      </trkpt>
      <trkpt lat="43.96194" lon="2.34526">
        <ele>365.92</ele>
        <time>2020-02-23T13:11:44Z</time>
      </trkpt>
      <trkpt lat="43.96192" lon="2.34537">
        <ele>367.84</ele>
        <time>2020-02-23T13:11:53Z</time>
      </trkpt>
      <trkpt lat="43.96189" lon="2.34546">
        <ele>369.28</ele>
        <time>2020-02-23T13:12:00Z</time>
      </trkpt>
      <trkpt lat="43.96187" lon="2.34561">
        <ele>370.73</ele>
        <time>2020-02-23T13:12:09Z</time>
      </trkpt>
      <trkpt lat="43.96186" lon="2.34572">
        <ele>371.69</ele>
        <time>2020-02-23T13:12:15Z</time>
      </trkpt>
      <trkpt lat="43.96187" lon="2.34587">
        <ele>374.09</ele>
        <time>2020-02-23T13:12:23Z</time>
      </trkpt>
      <trkpt lat="43.96187" lon="2.34599">
        <ele>374.57</ele>
        <time>2020-02-23T13:12:30Z</time>
      </trkpt>
      <trkpt lat="43.96188" lon="2.34609">
        <ele>376.01</ele>
        <time>2020-02-23T13:12:37Z</time>
      </trkpt>
      <trkpt lat="43.96189" lon="2.34614">
        <ele>376.49</ele>
        <time>2020-02-23T13:12:39Z</time>
      </trkpt>
      <trkpt lat="43.96194" lon="2.3463">
        <ele>376.49</ele>
        <time>2020-02-23T13:12:47Z</time>
      </trkpt>
      <trkpt lat="43.96195" lon="2.34632">
        <ele>376.97</ele>
        <time>2020-02-23T13:12:48Z</time>
      </trkpt>
      <trkpt lat="43.96204" lon="2.34643">
        <ele>376.97</ele>
        <time>2020-02-23T13:12:57Z</time>
      </trkpt>
      <trkpt lat="43.96214" lon="2.34645">
        <ele>375.53</ele>
        <time>2020-02-23T13:13:05Z</time>
      </trkpt>
      <trkpt lat="43.96215" lon="2.34645">
        <ele>375.53</ele>
        <time>2020-02-23T13:13:06Z</time>
      </trkpt>
      <trkpt lat="43.96224" lon="2.34645">
        <ele>375.05</ele>
        <time>2020-02-23T13:13:13Z</time>
      </trkpt>
      <trkpt lat="43.96232" lon="2.34642">
        <ele>375.53</ele>
        <time>2020-02-23T13:13:20Z</time>
      </trkpt>
      <trkpt lat="43.96243" lon="2.34637">
        <ele>375.53</ele>
        <time>2020-02-23T13:13:30Z</time>
      </trkpt>
      <trkpt lat="43.96247" lon="2.34633">
        <ele>376.01</ele>
        <time>2020-02-23T13:13:33Z</time>
      </trkpt>
      <trkpt lat="43.96258" lon="2.34622">
        <ele>377.45</ele>
        <time>2020-02-23T13:13:41Z</time>
      </trkpt>
      <trkpt lat="43.96269" lon="2.3461">
        <ele>379.38</ele>
        <time>2020-02-23T13:13:49Z</time>
      </trkpt>
      <trkpt lat="43.96278" lon="2.34599">
        <ele>381.78</ele>
        <time>2020-02-23T13:13:57Z</time>
      </trkpt>
      <trkpt lat="43.9628" lon="2.34596">
        <ele>382.74</ele>
        <time>2020-02-23T13:13:59Z</time>
      </trkpt>
      <trkpt lat="43.96289" lon="2.34584">
        <ele>386.11</ele>
        <time>2020-02-23T13:14:08Z</time>
      </trkpt>
      <trkpt lat="43.96298" lon="2.34567">
        <ele>390.91</ele>
        <time>2020-02-23T13:14:19Z</time>
      </trkpt>
      <trkpt lat="43.9631" lon="2.34548">
        <ele>392.84</ele>
        <time>2020-02-23T13:14:32Z</time>
      </trkpt>
      <trkpt lat="43.96324" lon="2.3453">
        <ele>394.76</ele>
        <time>2020-02-23T13:14:45Z</time>
      </trkpt>
      <trkpt lat="43.96337" lon="2.34512">
        <ele>394.76</ele>
        <time>2020-02-23T13:14:59Z</time>
      </trkpt>
      <trkpt lat="43.9635" lon="2.34492">
        <ele>396.2</ele>
        <time>2020-02-23T13:15:12Z</time>
      </trkpt>
      <trkpt lat="43.96366" lon="2.3447">
        <ele>397.64</ele>
        <time>2020-02-23T13:15:27Z</time>
      </trkpt>
      <trkpt lat="43.96378" lon="2.34451">
        <ele>397.16</ele>
        <time>2020-02-23T13:15:39Z</time>
      </trkpt>
      <trkpt lat="43.96387" lon="2.34435">
        <ele>394.76</ele>
        <time>2020-02-23T13:15:49Z</time>
      </trkpt>
      <trkpt lat="43.96397" lon="2.34419">
        <ele>394.28</ele>
        <time>2020-02-23T13:15:59Z</time>
      </trkpt>
      <trkpt lat="43.96411" lon="2.34397">
        <ele>393.8</ele>
        <time>2020-02-23T13:16:13Z</time>
      </trkpt>
      <trkpt lat="43.96419" lon="2.3438">
        <ele>393.32</ele>
        <time>2020-02-23T13:16:23Z</time>
      </trkpt>
      <trkpt lat="43.96429" lon="2.34363">
        <ele>393.8</ele>
        <time>2020-02-23T13:16:33Z</time>
      </trkpt>
      <trkpt lat="43.96441" lon="2.34344">
        <ele>390.91</ele>
        <time>2020-02-23T13:16:45Z</time>
      </trkpt>
      <trkpt lat="43.96452" lon="2.34323">
        <ele>391.39</ele>
        <time>2020-02-23T13:16:57Z</time>
      </trkpt>
      <trkpt lat="43.96464" lon="2.34299">
        <ele>390.91</ele>
        <time>2020-02-23T13:17:11Z</time>
      </trkpt>
      <trkpt lat="43.96472" lon="2.34286">
        <ele>390.91</ele>
        <time>2020-02-23T13:17:21Z</time>
      </trkpt>
      <trkpt lat="43.96482" lon="2.34271">
        <ele>390.43</ele>
        <time>2020-02-23T13:17:31Z</time>
      </trkpt>
      <trkpt lat="43.96491" lon="2.34253">
        <ele>390.43</ele>
        <time>2020-02-23T13:17:43Z</time>
      </trkpt>
      <trkpt lat="43.96499" lon="2.34238">
        <ele>390.91</ele>
        <time>2020-02-23T13:17:53Z</time>
      </trkpt>
      <trkpt lat="43.96512" lon="2.34213">
        <ele>390.91</ele>
        <time>2020-02-23T13:18:07Z</time>
      </trkpt>
      <trkpt lat="43.96521" lon="2.34193">
        <ele>390.91</ele>
        <time>2020-02-23T13:18:19Z</time>
      </trkpt>
      <trkpt lat="43.9653" lon="2.34169">
        <ele>391.39</ele>
        <time>2020-02-23T13:18:33Z</time>
      </trkpt>
      <trkpt lat="43.96538" lon="2.34148">
        <ele>390.91</ele>
        <time>2020-02-23T13:18:45Z</time>
      </trkpt>
      <trkpt lat="43.96546" lon="2.34129">
        <ele>389.47</ele>
        <time>2020-02-23T13:18:55Z</time>
      </trkpt>
      <trkpt lat="43.96555" lon="2.34108">
        <ele>388.51</ele>
        <time>2020-02-23T13:19:07Z</time>
      </trkpt>
      <trkpt lat="43.96565" lon="2.34083">
        <ele>389.47</ele>
        <time>2020-02-23T13:19:21Z</time>
      </trkpt>
      <trkpt lat="43.96574" lon="2.34057">
        <ele>390.43</ele>
        <time>2020-02-23T13:19:34Z</time>
      </trkpt>
      <trkpt lat="43.96577" lon="2.34034">
        <ele>389.47</ele>
        <time>2020-02-23T13:19:46Z</time>
      </trkpt>
      <trkpt lat="43.96578" lon="2.34026">
        <ele>388.99</ele>
        <time>2020-02-23T13:19:50Z</time>
      </trkpt>
      <trkpt lat="43.96579" lon="2.34001">
        <ele>386.11</ele>
        <time>2020-02-23T13:20:02Z</time>
      </trkpt>
      <trkpt lat="43.96582" lon="2.33983">
        <ele>386.59</ele>
        <time>2020-02-23T13:20:11Z</time>
      </trkpt>
      <trkpt lat="43.96586" lon="2.33963">
        <ele>386.59</ele>
        <time>2020-02-23T13:20:22Z</time>
      </trkpt>
      <trkpt lat="43.96585" lon="2.33944">
        <ele>387.55</ele>
        <time>2020-02-23T13:20:31Z</time>
      </trkpt>
      <trkpt lat="43.96583" lon="2.33929">
        <ele>388.03</ele>
        <time>2020-02-23T13:20:39Z</time>
      </trkpt>
      <trkpt lat="43.96578" lon="2.33911">
        <ele>388.03</ele>
        <time>2020-02-23T13:20:49Z</time>
      </trkpt>
      <trkpt lat="43.96574" lon="2.33887">
        <ele>388.99</ele>
        <time>2020-02-23T13:21:00Z</time>
      </trkpt>
      <trkpt lat="43.96572" lon="2.33866">
        <ele>389.95</ele>
        <time>2020-02-23T13:21:10Z</time>
      </trkpt>
      <trkpt lat="43.96573" lon="2.33836">
        <ele>390.43</ele>
        <time>2020-02-23T13:21:24Z</time>
      </trkpt>
      <trkpt lat="43.96574" lon="2.33814">
        <ele>390.43</ele>
        <time>2020-02-23T13:21:35Z</time>
      </trkpt>
      <trkpt lat="43.96576" lon="2.33789">
        <ele>391.39</ele>
        <time>2020-02-23T13:21:47Z</time>
      </trkpt>
      <trkpt lat="43.96578" lon="2.33771">
        <ele>391.39</ele>
        <time>2020-02-23T13:21:55Z</time>
      </trkpt>
      <trkpt lat="43.96579" lon="2.33745">
        <ele>391.39</ele>
        <time>2020-02-23T13:22:07Z</time>
      </trkpt>
      <trkpt lat="43.96582" lon="2.33715">
        <ele>390.43</ele>
        <time>2020-02-23T13:22:21Z</time>
      </trkpt>
      <trkpt lat="43.96591" lon="2.337">
        <ele>389.47</ele>
        <time>2020-02-23T13:22:30Z</time>
      </trkpt>
      <trkpt lat="43.96606" lon="2.33693">
        <ele>388.51</ele>
        <time>2020-02-23T13:22:41Z</time>
      </trkpt>
      <trkpt lat="43.96617" lon="2.33694">
        <ele>388.03</ele>
        <time>2020-02-23T13:22:50Z</time>
      </trkpt>
      <trkpt lat="43.96622" lon="2.33696">
        <ele>389.47</ele>
        <time>2020-02-23T13:22:59Z</time>
      </trkpt>
      <trkpt lat="43.96623" lon="2.33696">
        <ele>389.95</ele>
        <time>2020-02-23T13:23:18Z</time>
      </trkpt>
      <trkpt lat="43.96623" lon="2.33696">
        <ele>389.95</ele>
        <time>2020-02-23T13:23:21Z</time>
      </trkpt>
      <trkpt lat="43.96628" lon="2.33692">
        <ele>389.95</ele>
        <time>2020-02-23T13:23:25Z</time>
      </trkpt>
      <trkpt lat="43.96645" lon="2.33674">
        <ele>388.51</ele>
        <time>2020-02-23T13:23:40Z</time>
      </trkpt>
      <trkpt lat="43.96657" lon="2.3366">
        <ele>388.51</ele>
        <time>2020-02-23T13:23:50Z</time>
      </trkpt>
      <trkpt lat="43.96666" lon="2.33648">
        <ele>388.51</ele>
        <time>2020-02-23T13:23:59Z</time>
      </trkpt>
      <trkpt lat="43.96678" lon="2.33631">
        <ele>387.55</ele>
        <time>2020-02-23T13:24:10Z</time>
      </trkpt>
      <trkpt lat="43.96684" lon="2.33615">
        <ele>388.03</ele>
        <time>2020-02-23T13:24:19Z</time>
      </trkpt>
      <trkpt lat="43.96689" lon="2.33591">
        <ele>389.47</ele>
        <time>2020-02-23T13:24:31Z</time>
      </trkpt>
      <trkpt lat="43.96692" lon="2.33577">
        <ele>389.95</ele>
        <time>2020-02-23T13:24:38Z</time>
      </trkpt>
      <trkpt lat="43.96698" lon="2.33559">
        <ele>389.47</ele>
        <time>2020-02-23T13:24:47Z</time>
      </trkpt>
      <trkpt lat="43.96699" lon="2.33554">
        <ele>389.47</ele>
        <time>2020-02-23T13:24:50Z</time>
      </trkpt>
      <trkpt lat="43.96715" lon="2.33556">
        <ele>388.99</ele>
        <time>2020-02-23T13:25:00Z</time>
      </trkpt>
      <trkpt lat="43.96731" lon="2.33557">
        <ele>387.07</ele>
        <time>2020-02-23T13:25:11Z</time>
      </trkpt>
      <trkpt lat="43.96745" lon="2.33559">
        <ele>385.63</ele>
        <time>2020-02-23T13:25:21Z</time>
      </trkpt>
      <trkpt lat="43.96762" lon="2.33562">
        <ele>385.63</ele>
        <time>2020-02-23T13:25:32Z</time>
      </trkpt>
      <trkpt lat="43.96778" lon="2.33565">
        <ele>386.59</ele>
        <time>2020-02-23T13:25:43Z</time>
      </trkpt>
      <trkpt lat="43.96793" lon="2.33561">
        <ele>387.07</ele>
        <time>2020-02-23T13:25:53Z</time>
      </trkpt>
      <trkpt lat="43.96803" lon="2.33552">
        <ele>386.59</ele>
        <time>2020-02-23T13:26:00Z</time>
      </trkpt>
      <trkpt lat="43.96809" lon="2.33537">
        <ele>386.59</ele>
        <time>2020-02-23T13:26:08Z</time>
      </trkpt>
      <trkpt lat="43.96814" lon="2.33515">
        <ele>387.07</ele>
        <time>2020-02-23T13:26:19Z</time>
      </trkpt>
      <trkpt lat="43.96823" lon="2.33491">
        <ele>387.07</ele>
        <time>2020-02-23T13:26:31Z</time>
      </trkpt>
      <trkpt lat="43.9683" lon="2.33466">
        <ele>387.07</ele>
        <time>2020-02-23T13:26:43Z</time>
      </trkpt>
      <trkpt lat="43.96836" lon="2.3345">
        <ele>386.11</ele>
        <time>2020-02-23T13:26:52Z</time>
      </trkpt>
      <trkpt lat="43.96843" lon="2.33426">
        <ele>385.15</ele>
        <time>2020-02-23T13:27:04Z</time>
      </trkpt>
      <trkpt lat="43.96851" lon="2.33398">
        <ele>385.15</ele>
        <time>2020-02-23T13:27:17Z</time>
      </trkpt>
      <trkpt lat="43.9686" lon="2.33373">
        <ele>384.18</ele>
        <time>2020-02-23T13:27:30Z</time>
      </trkpt>
      <trkpt lat="43.9687" lon="2.33342">
        <ele>382.74</ele>
        <time>2020-02-23T13:27:45Z</time>
      </trkpt>
      <trkpt lat="43.96871" lon="2.33339">
        <ele>382.74</ele>
        <time>2020-02-23T13:27:47Z</time>
      </trkpt>
      <trkpt lat="43.96886" lon="2.33328">
        <ele>383.22</ele>
        <time>2020-02-23T13:27:58Z</time>
      </trkpt>
      <trkpt lat="43.96903" lon="2.3332">
        <ele>381.78</ele>
        <time>2020-02-23T13:28:09Z</time>
      </trkpt>
      <trkpt lat="43.9692" lon="2.33312">
        <ele>382.26</ele>
        <time>2020-02-23T13:28:20Z</time>
      </trkpt>
      <trkpt lat="43.96932" lon="2.33307">
        <ele>382.26</ele>
        <time>2020-02-23T13:28:29Z</time>
      </trkpt>
      <trkpt lat="43.96946" lon="2.33299">
        <ele>382.74</ele>
        <time>2020-02-23T13:28:39Z</time>
      </trkpt>
      <trkpt lat="43.96962" lon="2.33292">
        <ele>381.78</ele>
        <time>2020-02-23T13:28:50Z</time>
      </trkpt>
      <trkpt lat="43.9697" lon="2.33284">
        <ele>380.34</ele>
        <time>2020-02-23T13:28:57Z</time>
      </trkpt>
      <trkpt lat="43.96981" lon="2.33278">
        <ele>378.9</ele>
        <time>2020-02-23T13:29:06Z</time>
      </trkpt>
      <trkpt lat="43.96992" lon="2.33272">
        <ele>377.45</ele>
        <time>2020-02-23T13:29:14Z</time>
      </trkpt>
      <trkpt lat="43.97006" lon="2.33265">
        <ele>376.01</ele>
        <time>2020-02-23T13:29:24Z</time>
      </trkpt>
      <trkpt lat="43.97019" lon="2.33257">
        <ele>376.01</ele>
        <time>2020-02-23T13:29:33Z</time>
      </trkpt>
      <trkpt lat="43.97032" lon="2.33248">
        <ele>375.53</ele>
        <time>2020-02-23T13:29:43Z</time>
      </trkpt>
      <trkpt lat="43.97042" lon="2.33238">
        <ele>375.53</ele>
        <time>2020-02-23T13:29:52Z</time>
      </trkpt>
      <trkpt lat="43.97054" lon="2.33226">
        <ele>376.01</ele>
        <time>2020-02-23T13:30:01Z</time>
      </trkpt>
      <trkpt lat="43.97074" lon="2.33214">
        <ele>376.97</ele>
        <time>2020-02-23T13:30:14Z</time>
      </trkpt>
      <trkpt lat="43.97092" lon="2.33203">
        <ele>377.94</ele>
        <time>2020-02-23T13:30:27Z</time>
      </trkpt>
      <trkpt lat="43.97103" lon="2.33196">
        <ele>376.97</ele>
        <time>2020-02-23T13:30:35Z</time>
      </trkpt>
      <trkpt lat="43.97115" lon="2.33189">
        <ele>376.97</ele>
        <time>2020-02-23T13:30:44Z</time>
      </trkpt>
      <trkpt lat="43.97131" lon="2.33181">
        <ele>377.94</ele>
        <time>2020-02-23T13:30:55Z</time>
      </trkpt>
      <trkpt lat="43.97144" lon="2.33175">
        <ele>376.97</ele>
        <time>2020-02-23T13:31:05Z</time>
      </trkpt>
      <trkpt lat="43.97161" lon="2.33167">
        <ele>376.97</ele>
        <time>2020-02-23T13:31:16Z</time>
      </trkpt>
      <trkpt lat="43.97173" lon="2.33161">
        <ele>377.45</ele>
        <time>2020-02-23T13:31:25Z</time>
      </trkpt>
      <trkpt lat="43.97189" lon="2.33151">
        <ele>378.42</ele>
        <time>2020-02-23T13:31:36Z</time>
      </trkpt>
      <trkpt lat="43.97203" lon="2.33149">
        <ele>378.9</ele>
        <time>2020-02-23T13:31:45Z</time>
      </trkpt>
      <trkpt lat="43.97217" lon="2.33143">
        <ele>377.45</ele>
        <time>2020-02-23T13:31:54Z</time>
      </trkpt>
      <trkpt lat="43.97232" lon="2.33134">
        <ele>377.94</ele>
        <time>2020-02-23T13:32:06Z</time>
      </trkpt>
      <trkpt lat="43.97242" lon="2.3313">
        <ele>379.86</ele>
        <time>2020-02-23T13:32:14Z</time>
      </trkpt>
      <trkpt lat="43.97258" lon="2.33126">
        <ele>380.82</ele>
        <time>2020-02-23T13:32:24Z</time>
      </trkpt>
      <trkpt lat="43.97268" lon="2.33123">
        <ele>378.42</ele>
        <time>2020-02-23T13:32:32Z</time>
      </trkpt>
      <trkpt lat="43.9728" lon="2.33117">
        <ele>375.53</ele>
        <time>2020-02-23T13:32:42Z</time>
      </trkpt>
      <trkpt lat="43.97292" lon="2.33112">
        <ele>372.17</ele>
        <time>2020-02-23T13:32:51Z</time>
      </trkpt>
      <trkpt lat="43.97296" lon="2.33106">
        <ele>371.21</ele>
        <time>2020-02-23T13:32:58Z</time>
      </trkpt>
      <trkpt lat="43.97306" lon="2.33104">
        <ele>370.24</ele>
        <time>2020-02-23T13:33:06Z</time>
      </trkpt>
      <trkpt lat="43.97308" lon="2.33102">
        <ele>369.28</ele>
        <time>2020-02-23T13:33:08Z</time>
      </trkpt>
      <trkpt lat="43.97324" lon="2.33092">
        <ele>367.84</ele>
        <time>2020-02-23T13:33:18Z</time>
      </trkpt>
      <trkpt lat="43.97333" lon="2.33087">
        <ele>368.32</ele>
        <time>2020-02-23T13:33:24Z</time>
      </trkpt>
      <trkpt lat="43.97346" lon="2.33081">
        <ele>368.8</ele>
        <time>2020-02-23T13:33:32Z</time>
      </trkpt>
      <trkpt lat="43.97358" lon="2.33073">
        <ele>368.8</ele>
        <time>2020-02-23T13:33:40Z</time>
      </trkpt>
      <trkpt lat="43.97379" lon="2.33062">
        <ele>370.73</ele>
        <time>2020-02-23T13:33:51Z</time>
      </trkpt>
      <trkpt lat="43.97394" lon="2.3305">
        <ele>371.69</ele>
        <time>2020-02-23T13:34:01Z</time>
      </trkpt>
      <trkpt lat="43.97401" lon="2.33038">
        <ele>374.09</ele>
        <time>2020-02-23T13:34:10Z</time>
      </trkpt>
      <trkpt lat="43.97401" lon="2.33039">
        <ele>376.01</ele>
        <time>2020-02-23T13:34:28Z</time>
      </trkpt>
      <trkpt lat="43.97404" lon="2.33041">
        <ele>379.38</ele>
        <time>2020-02-23T13:34:44Z</time>
      </trkpt>
      <trkpt lat="43.97411" lon="2.33046">
        <ele>378.42</ele>
        <time>2020-02-23T13:34:54Z</time>
      </trkpt>
      <trkpt lat="43.97407" lon="2.33048">
        <ele>378.42</ele>
        <time>2020-02-23T13:35:00Z</time>
      </trkpt>
      <trkpt lat="43.97404" lon="2.33049">
        <ele>378.42</ele>
        <time>2020-02-23T13:35:03Z</time>
      </trkpt>
      <trkpt lat="43.97395" lon="2.33057">
        <ele>376.01</ele>
        <time>2020-02-23T13:35:11Z</time>
      </trkpt>
      <trkpt lat="43.9738" lon="2.3306">
        <ele>374.57</ele>
        <time>2020-02-23T13:35:21Z</time>
      </trkpt>
      <trkpt lat="43.97376" lon="2.33061">
        <ele>375.05</ele>
        <time>2020-02-23T13:35:24Z</time>
      </trkpt>
      <trkpt lat="43.97374" lon="2.33062">
        <ele>375.05</ele>
        <time>2020-02-23T13:35:25Z</time>
      </trkpt>
      <trkpt lat="43.97372" lon="2.33062">
        <ele>375.05</ele>
        <time>2020-02-23T13:35:26Z</time>
      </trkpt>
      <trkpt lat="43.9737" lon="2.33063">
        <ele>375.53</ele>
        <time>2020-02-23T13:35:28Z</time>
      </trkpt>
      <trkpt lat="43.97369" lon="2.33064">
        <ele>375.53</ele>
        <time>2020-02-23T13:35:29Z</time>
      </trkpt>
      <trkpt lat="43.97368" lon="2.33064">
        <ele>375.53</ele>
        <time>2020-02-23T13:35:30Z</time>
      </trkpt>
      <trkpt lat="43.97357" lon="2.3307">
        <ele>376.49</ele>
        <time>2020-02-23T13:35:39Z</time>
      </trkpt>
      <trkpt lat="43.97348" lon="2.33074">
        <ele>376.49</ele>
        <time>2020-02-23T13:35:46Z</time>
      </trkpt>
      <trkpt lat="43.97333" lon="2.33078">
        <ele>376.97</ele>
        <time>2020-02-23T13:35:57Z</time>
      </trkpt>
      <trkpt lat="43.97324" lon="2.33084">
        <ele>378.42</ele>
        <time>2020-02-23T13:36:04Z</time>
      </trkpt>
      <trkpt lat="43.9732" lon="2.33089">
        <ele>381.78</ele>
        <time>2020-02-23T13:36:13Z</time>
      </trkpt>
      <trkpt lat="43.97318" lon="2.33098">
        <ele>388.03</ele>
        <time>2020-02-23T13:36:29Z</time>
      </trkpt>
      <trkpt lat="43.97313" lon="2.33103">
        <ele>388.51</ele>
        <time>2020-02-23T13:36:46Z</time>
      </trkpt>
      <trkpt lat="43.97312" lon="2.33114">
        <ele>388.99</ele>
        <time>2020-02-23T13:37:05Z</time>
      </trkpt>
      <trkpt lat="43.97309" lon="2.33116">
        <ele>388.99</ele>
        <time>2020-02-23T13:37:16Z</time>
      </trkpt>
      <trkpt lat="43.97301" lon="2.3311">
        <ele>387.07</ele>
        <time>2020-02-23T13:37:24Z</time>
      </trkpt>
      <trkpt lat="43.97293" lon="2.33111">
        <ele>384.18</ele>
        <time>2020-02-23T13:37:32Z</time>
      </trkpt>
      <trkpt lat="43.97287" lon="2.33113">
        <ele>382.74</ele>
        <time>2020-02-23T13:37:37Z</time>
      </trkpt>
      <trkpt lat="43.97274" lon="2.33118">
        <ele>379.38</ele>
        <time>2020-02-23T13:37:46Z</time>
      </trkpt>
      <trkpt lat="43.97268" lon="2.33121">
        <ele>378.42</ele>
        <time>2020-02-23T13:37:53Z</time>
      </trkpt>
      <trkpt lat="43.97269" lon="2.33124">
        <ele>382.74</ele>
        <time>2020-02-23T13:38:14Z</time>
      </trkpt>
      <trkpt lat="43.97265" lon="2.3313">
        <ele>387.55</ele>
        <time>2020-02-23T13:38:32Z</time>
      </trkpt>
      <trkpt lat="43.97258" lon="2.33129">
        <ele>388.99</ele>
        <time>2020-02-23T13:38:46Z</time>
      </trkpt>
      <trkpt lat="43.97246" lon="2.3313">
        <ele>385.63</ele>
        <time>2020-02-23T13:38:54Z</time>
      </trkpt>
      <trkpt lat="43.97232" lon="2.33134">
        <ele>381.3</ele>
        <time>2020-02-23T13:39:04Z</time>
      </trkpt>
      <trkpt lat="43.9723" lon="2.33134">
        <ele>381.3</ele>
        <time>2020-02-23T13:39:05Z</time>
      </trkpt>
      <trkpt lat="43.97215" lon="2.33145">
        <ele>378.42</ele>
        <time>2020-02-23T13:39:17Z</time>
      </trkpt>
      <trkpt lat="43.97198" lon="2.3315">
        <ele>377.94</ele>
        <time>2020-02-23T13:39:28Z</time>
      </trkpt>
      <trkpt lat="43.97183" lon="2.33155">
        <ele>378.9</ele>
        <time>2020-02-23T13:39:38Z</time>
      </trkpt>
      <trkpt lat="43.97172" lon="2.3316">
        <ele>379.86</ele>
        <time>2020-02-23T13:39:46Z</time>
      </trkpt>
      <trkpt lat="43.97169" lon="2.33162">
        <ele>381.3</ele>
        <time>2020-02-23T13:39:50Z</time>
      </trkpt>
      <trkpt lat="43.97163" lon="2.33164">
        <ele>382.26</ele>
        <time>2020-02-23T13:39:54Z</time>
      </trkpt>
      <trkpt lat="43.97149" lon="2.33172">
        <ele>382.74</ele>
        <time>2020-02-23T13:40:03Z</time>
      </trkpt>
      <trkpt lat="43.9713" lon="2.33181">
        <ele>382.26</ele>
        <time>2020-02-23T13:40:13Z</time>
      </trkpt>
      <trkpt lat="43.97116" lon="2.33187">
        <ele>380.82</ele>
        <time>2020-02-23T13:40:22Z</time>
      </trkpt>
      <trkpt lat="43.97107" lon="2.33193">
        <ele>378.9</ele>
        <time>2020-02-23T13:40:29Z</time>
      </trkpt>
      <trkpt lat="43.97093" lon="2.33202">
        <ele>379.38</ele>
        <time>2020-02-23T13:40:39Z</time>
      </trkpt>
      <trkpt lat="43.97079" lon="2.33211">
        <ele>379.38</ele>
        <time>2020-02-23T13:40:48Z</time>
      </trkpt>
      <trkpt lat="43.97065" lon="2.33219">
        <ele>379.38</ele>
        <time>2020-02-23T13:40:57Z</time>
      </trkpt>
      <trkpt lat="43.97047" lon="2.33233">
        <ele>379.38</ele>
        <time>2020-02-23T13:41:10Z</time>
      </trkpt>
      <trkpt lat="43.97036" lon="2.33244">
        <ele>380.34</ele>
        <time>2020-02-23T13:41:19Z</time>
      </trkpt>
      <trkpt lat="43.97021" lon="2.33257">
        <ele>381.3</ele>
        <time>2020-02-23T13:41:30Z</time>
      </trkpt>
      <trkpt lat="43.97009" lon="2.33265">
        <ele>380.34</ele>
        <time>2020-02-23T13:41:39Z</time>
      </trkpt>
      <trkpt lat="43.96998" lon="2.33272">
        <ele>379.38</ele>
        <time>2020-02-23T13:41:48Z</time>
      </trkpt>
      <trkpt lat="43.96987" lon="2.33277">
        <ele>378.9</ele>
        <time>2020-02-23T13:41:56Z</time>
      </trkpt>
      <trkpt lat="43.96976" lon="2.33282">
        <ele>380.34</ele>
        <time>2020-02-23T13:42:04Z</time>
      </trkpt>
      <trkpt lat="43.96963" lon="2.33289">
        <ele>381.3</ele>
        <time>2020-02-23T13:42:14Z</time>
      </trkpt>
      <trkpt lat="43.9695" lon="2.33296">
        <ele>382.26</ele>
        <time>2020-02-23T13:42:23Z</time>
      </trkpt>
      <trkpt lat="43.96934" lon="2.33304">
        <ele>383.7</ele>
        <time>2020-02-23T13:42:34Z</time>
      </trkpt>
      <trkpt lat="43.96917" lon="2.33312">
        <ele>382.26</ele>
        <time>2020-02-23T13:42:46Z</time>
      </trkpt>
      <trkpt lat="43.96901" lon="2.3332">
        <ele>382.26</ele>
        <time>2020-02-23T13:42:57Z</time>
      </trkpt>
      <trkpt lat="43.96887" lon="2.33328">
        <ele>383.7</ele>
        <time>2020-02-23T13:43:07Z</time>
      </trkpt>
      <trkpt lat="43.96874" lon="2.33334">
        <ele>384.66</ele>
        <time>2020-02-23T13:43:16Z</time>
      </trkpt>
      <trkpt lat="43.96869" lon="2.33343">
        <ele>384.18</ele>
        <time>2020-02-23T13:43:22Z</time>
      </trkpt>
      <trkpt lat="43.9686" lon="2.33372">
        <ele>381.78</ele>
        <time>2020-02-23T13:43:37Z</time>
      </trkpt>
      <trkpt lat="43.96853" lon="2.33394">
        <ele>382.74</ele>
        <time>2020-02-23T13:43:48Z</time>
      </trkpt>
      <trkpt lat="43.96847" lon="2.33412">
        <ele>385.15</ele>
        <time>2020-02-23T13:43:58Z</time>
      </trkpt>
      <trkpt lat="43.9684" lon="2.33436">
        <ele>386.11</ele>
        <time>2020-02-23T13:44:10Z</time>
      </trkpt>
      <trkpt lat="43.96832" lon="2.33463">
        <ele>386.59</ele>
        <time>2020-02-23T13:44:24Z</time>
      </trkpt>
      <trkpt lat="43.96823" lon="2.33492">
        <ele>387.07</ele>
        <time>2020-02-23T13:44:38Z</time>
      </trkpt>
      <trkpt lat="43.96815" lon="2.33516">
        <ele>387.55</ele>
        <time>2020-02-23T13:44:51Z</time>
      </trkpt>
      <trkpt lat="43.96807" lon="2.33539">
        <ele>388.03</ele>
        <time>2020-02-23T13:45:04Z</time>
      </trkpt>
      <trkpt lat="43.96796" lon="2.33558">
        <ele>388.51</ele>
        <time>2020-02-23T13:45:16Z</time>
      </trkpt>
      <trkpt lat="43.96785" lon="2.33566">
        <ele>388.03</ele>
        <time>2020-02-23T13:45:24Z</time>
      </trkpt>
      <trkpt lat="43.9677" lon="2.33566">
        <ele>386.59</ele>
        <time>2020-02-23T13:45:34Z</time>
      </trkpt>
      <trkpt lat="43.96753" lon="2.33564">
        <ele>387.55</ele>
        <time>2020-02-23T13:45:45Z</time>
      </trkpt>
      <trkpt lat="43.96737" lon="2.3356">
        <ele>388.03</ele>
        <time>2020-02-23T13:45:55Z</time>
      </trkpt>
      <trkpt lat="43.96722" lon="2.33558">
        <ele>387.07</ele>
        <time>2020-02-23T13:46:05Z</time>
      </trkpt>
      <trkpt lat="43.96709" lon="2.33554">
        <ele>387.07</ele>
        <time>2020-02-23T13:46:14Z</time>
      </trkpt>
      <trkpt lat="43.96704" lon="2.33553">
        <ele>386.59</ele>
        <time>2020-02-23T13:46:17Z</time>
      </trkpt>
      <trkpt lat="43.96698" lon="2.33559">
        <ele>387.07</ele>
        <time>2020-02-23T13:46:22Z</time>
      </trkpt>
      <trkpt lat="43.96692" lon="2.33582">
        <ele>388.51</ele>
        <time>2020-02-23T13:46:33Z</time>
      </trkpt>
      <trkpt lat="43.96689" lon="2.33598">
        <ele>388.99</ele>
        <time>2020-02-23T13:46:42Z</time>
      </trkpt>
      <trkpt lat="43.96684" lon="2.33618">
        <ele>388.99</ele>
        <time>2020-02-23T13:46:52Z</time>
      </trkpt>
      <trkpt lat="43.96676" lon="2.33636">
        <ele>389.95</ele>
        <time>2020-02-23T13:47:02Z</time>
      </trkpt>
      <trkpt lat="43.96668" lon="2.33648">
        <ele>390.43</ele>
        <time>2020-02-23T13:47:11Z</time>
      </trkpt>
      <trkpt lat="43.96657" lon="2.33659">
        <ele>391.39</ele>
        <time>2020-02-23T13:47:20Z</time>
      </trkpt>
      <trkpt lat="43.96645" lon="2.33673">
        <ele>392.36</ele>
        <time>2020-02-23T13:47:30Z</time>
      </trkpt>
      <trkpt lat="43.96633" lon="2.33685">
        <ele>391.87</ele>
        <time>2020-02-23T13:47:40Z</time>
      </trkpt>
      <trkpt lat="43.9662" lon="2.33692">
        <ele>391.87</ele>
        <time>2020-02-23T13:47:50Z</time>
      </trkpt>
      <trkpt lat="43.96601" lon="2.33694">
        <ele>389.95</ele>
        <time>2020-02-23T13:48:02Z</time>
      </trkpt>
      <trkpt lat="43.96587" lon="2.33706">
        <ele>392.36</ele>
        <time>2020-02-23T13:48:13Z</time>
      </trkpt>
      <trkpt lat="43.96581" lon="2.33727">
        <ele>391.39</ele>
        <time>2020-02-23T13:48:24Z</time>
      </trkpt>
      <trkpt lat="43.96576" lon="2.33757">
        <ele>392.84</ele>
        <time>2020-02-23T13:48:38Z</time>
      </trkpt>
      <trkpt lat="43.96574" lon="2.33784">
        <ele>392.36</ele>
        <time>2020-02-23T13:48:51Z</time>
      </trkpt>
      <trkpt lat="43.96573" lon="2.33807">
        <ele>392.36</ele>
        <time>2020-02-23T13:49:02Z</time>
      </trkpt>
      <trkpt lat="43.96572" lon="2.33835">
        <ele>390.91</ele>
        <time>2020-02-23T13:49:15Z</time>
      </trkpt>
      <trkpt lat="43.96571" lon="2.33862">
        <ele>392.84</ele>
        <time>2020-02-23T13:49:28Z</time>
      </trkpt>
      <trkpt lat="43.96575" lon="2.3389">
        <ele>392.84</ele>
        <time>2020-02-23T13:49:42Z</time>
      </trkpt>
      <trkpt lat="43.96579" lon="2.33907">
        <ele>392.36</ele>
        <time>2020-02-23T13:49:51Z</time>
      </trkpt>
      <trkpt lat="43.96584" lon="2.33927">
        <ele>388.99</ele>
        <time>2020-02-23T13:50:02Z</time>
      </trkpt>
      <trkpt lat="43.96587" lon="2.33951">
        <ele>389.47</ele>
        <time>2020-02-23T13:50:12Z</time>
      </trkpt>
      <trkpt lat="43.96585" lon="2.33977">
        <ele>388.51</ele>
        <time>2020-02-23T13:50:23Z</time>
      </trkpt>
      <trkpt lat="43.96582" lon="2.33998">
        <ele>388.99</ele>
        <time>2020-02-23T13:50:33Z</time>
      </trkpt>
      <trkpt lat="43.96578" lon="2.34025">
        <ele>387.55</ele>
        <time>2020-02-23T13:50:46Z</time>
      </trkpt>
      <trkpt lat="43.96576" lon="2.34054">
        <ele>389.95</ele>
        <time>2020-02-23T13:51:00Z</time>
      </trkpt>
      <trkpt lat="43.96569" lon="2.34073">
        <ele>390.43</ele>
        <time>2020-02-23T13:51:10Z</time>
      </trkpt>
      <trkpt lat="43.96558" lon="2.34097">
        <ele>389.95</ele>
        <time>2020-02-23T13:51:23Z</time>
      </trkpt>
      <trkpt lat="43.96551" lon="2.34116">
        <ele>389.47</ele>
        <time>2020-02-23T13:51:33Z</time>
      </trkpt>
      <trkpt lat="43.96542" lon="2.34137">
        <ele>389.95</ele>
        <time>2020-02-23T13:51:45Z</time>
      </trkpt>
      <trkpt lat="43.96532" lon="2.34161">
        <ele>388.99</ele>
        <time>2020-02-23T13:51:58Z</time>
      </trkpt>
      <trkpt lat="43.96523" lon="2.34184">
        <ele>388.99</ele>
        <time>2020-02-23T13:52:10Z</time>
      </trkpt>
      <trkpt lat="43.96515" lon="2.34202">
        <ele>388.03</ele>
        <time>2020-02-23T13:52:21Z</time>
      </trkpt>
      <trkpt lat="43.96504" lon="2.34226">
        <ele>388.51</ele>
        <time>2020-02-23T13:52:34Z</time>
      </trkpt>
      <trkpt lat="43.96492" lon="2.34249">
        <ele>389.47</ele>
        <time>2020-02-23T13:52:47Z</time>
      </trkpt>
      <trkpt lat="43.96484" lon="2.34265">
        <ele>389.47</ele>
        <time>2020-02-23T13:52:57Z</time>
      </trkpt>
      <trkpt lat="43.96476" lon="2.34279">
        <ele>389.47</ele>
        <time>2020-02-23T13:53:06Z</time>
      </trkpt>
      <trkpt lat="43.96468" lon="2.34295">
        <ele>389.47</ele>
        <time>2020-02-23T13:53:16Z</time>
      </trkpt>
      <trkpt lat="43.96457" lon="2.34315">
        <ele>389.95</ele>
        <time>2020-02-23T13:53:28Z</time>
      </trkpt>
      <trkpt lat="43.96443" lon="2.34341">
        <ele>390.91</ele>
        <time>2020-02-23T13:53:43Z</time>
      </trkpt>
      <trkpt lat="43.96432" lon="2.34358">
        <ele>391.39</ele>
        <time>2020-02-23T13:53:54Z</time>
      </trkpt>
      <trkpt lat="43.9642" lon="2.34379">
        <ele>392.84</ele>
        <time>2020-02-23T13:54:07Z</time>
      </trkpt>
      <trkpt lat="43.96409" lon="2.34399">
        <ele>392.36</ele>
        <time>2020-02-23T13:54:19Z</time>
      </trkpt>
      <trkpt lat="43.96396" lon="2.34421">
        <ele>393.8</ele>
        <time>2020-02-23T13:54:32Z</time>
      </trkpt>
      <trkpt lat="43.96383" lon="2.34442">
        <ele>395.24</ele>
        <time>2020-02-23T13:54:45Z</time>
      </trkpt>
      <trkpt lat="43.96371" lon="2.3446">
        <ele>395.24</ele>
        <time>2020-02-23T13:54:57Z</time>
      </trkpt>
      <trkpt lat="43.96356" lon="2.34483">
        <ele>394.76</ele>
        <time>2020-02-23T13:55:11Z</time>
      </trkpt>
      <trkpt lat="43.96342" lon="2.34503">
        <ele>394.76</ele>
        <time>2020-02-23T13:55:24Z</time>
      </trkpt>
      <trkpt lat="43.96329" lon="2.34519">
        <ele>394.76</ele>
        <time>2020-02-23T13:55:36Z</time>
      </trkpt>
      <trkpt lat="43.96312" lon="2.34542">
        <ele>390.91</ele>
        <time>2020-02-23T13:55:51Z</time>
      </trkpt>
      <trkpt lat="43.96298" lon="2.34561">
        <ele>390.43</ele>
        <time>2020-02-23T13:56:03Z</time>
      </trkpt>
      <trkpt lat="43.96287" lon="2.34582">
        <ele>390.43</ele>
        <time>2020-02-23T13:56:14Z</time>
      </trkpt>
      <trkpt lat="43.96279" lon="2.34595">
        <ele>388.51</ele>
        <time>2020-02-23T13:56:23Z</time>
      </trkpt>
      <trkpt lat="43.96277" lon="2.34597">
        <ele>384.66</ele>
        <time>2020-02-23T13:56:30Z</time>
      </trkpt>
      <trkpt lat="43.96276" lon="2.34599">
        <ele>384.18</ele>
        <time>2020-02-23T13:56:39Z</time>
      </trkpt>
      <trkpt lat="43.96267" lon="2.34612">
        <ele>381.78</ele>
        <time>2020-02-23T13:56:48Z</time>
      </trkpt>
      <trkpt lat="43.96259" lon="2.34618">
        <ele>379.38</ele>
        <time>2020-02-23T13:56:55Z</time>
      </trkpt>
      <trkpt lat="43.96249" lon="2.34627">
        <ele>377.94</ele>
        <time>2020-02-23T13:57:03Z</time>
      </trkpt>
      <trkpt lat="43.96237" lon="2.34635">
        <ele>379.38</ele>
        <time>2020-02-23T13:57:12Z</time>
      </trkpt>
      <trkpt lat="43.96228" lon="2.3464">
        <ele>377.45</ele>
        <time>2020-02-23T13:57:19Z</time>
      </trkpt>
      <trkpt lat="43.96218" lon="2.34641">
        <ele>376.97</ele>
        <time>2020-02-23T13:57:26Z</time>
      </trkpt>
      <trkpt lat="43.96201" lon="2.34631">
        <ele>375.05</ele>
        <time>2020-02-23T13:57:35Z</time>
      </trkpt>
      <trkpt lat="43.96195" lon="2.3462">
        <ele>375.05</ele>
        <time>2020-02-23T13:57:43Z</time>
      </trkpt>
      <trkpt lat="43.96192" lon="2.34606">
        <ele>373.13</ele>
        <time>2020-02-23T13:57:50Z</time>
      </trkpt>
      <trkpt lat="43.9619" lon="2.34588">
        <ele>371.69</ele>
        <time>2020-02-23T13:57:58Z</time>
      </trkpt>
      <trkpt lat="43.9619" lon="2.34573">
        <ele>369.28</ele>
        <time>2020-02-23T13:58:07Z</time>
      </trkpt>
      <trkpt lat="43.96193" lon="2.34557">
        <ele>365.92</ele>
        <time>2020-02-23T13:58:15Z</time>
      </trkpt>
      <trkpt lat="43.96195" lon="2.34545">
        <ele>365.44</ele>
        <time>2020-02-23T13:58:21Z</time>
      </trkpt>
      <trkpt lat="43.96198" lon="2.34529">
        <ele>363.04</ele>
        <time>2020-02-23T13:58:29Z</time>
      </trkpt>
      <trkpt lat="43.96202" lon="2.34504">
        <ele>363.04</ele>
        <time>2020-02-23T13:58:37Z</time>
      </trkpt>
      <trkpt lat="43.96203" lon="2.34494">
        <ele>363.04</ele>
        <time>2020-02-23T13:58:41Z</time>
      </trkpt>
      <trkpt lat="43.96203" lon="2.34487">
        <ele>362.07</ele>
        <time>2020-02-23T13:58:45Z</time>
      </trkpt>
      <trkpt lat="43.96209" lon="2.34472">
        <ele>358.71</ele>
        <time>2020-02-23T13:58:54Z</time>
      </trkpt>
      <trkpt lat="43.96212" lon="2.34462">
        <ele>354.38</ele>
        <time>2020-02-23T13:59:01Z</time>
      </trkpt>
      <trkpt lat="43.96214" lon="2.3445">
        <ele>351.02</ele>
        <time>2020-02-23T13:59:08Z</time>
      </trkpt>
      <trkpt lat="43.96212" lon="2.3445">
        <ele>346.21</ele>
        <time>2020-02-23T13:59:15Z</time>
      </trkpt>
      <trkpt lat="43.96206" lon="2.34456">
        <ele>339</ele>
        <time>2020-02-23T13:59:24Z</time>
      </trkpt>
      <trkpt lat="43.96198" lon="2.34463">
        <ele>333.23</ele>
        <time>2020-02-23T13:59:32Z</time>
      </trkpt>
      <trkpt lat="43.96195" lon="2.34468">
        <ele>330.83</ele>
        <time>2020-02-23T13:59:36Z</time>
      </trkpt>
      <trkpt lat="43.96187" lon="2.34478">
        <ele>328.43</ele>
        <time>2020-02-23T13:59:44Z</time>
      </trkpt>
      <trkpt lat="43.96179" lon="2.34488">
        <ele>324.1</ele>
        <time>2020-02-23T13:59:53Z</time>
      </trkpt>
      <trkpt lat="43.96172" lon="2.34504">
        <ele>320.26</ele>
        <time>2020-02-23T14:00:02Z</time>
      </trkpt>
      <trkpt lat="43.96164" lon="2.34518">
        <ele>315.93</ele>
        <time>2020-02-23T14:00:11Z</time>
      </trkpt>
      <trkpt lat="43.96157" lon="2.34531">
        <ele>315.93</ele>
        <time>2020-02-23T14:00:19Z</time>
      </trkpt>
      <trkpt lat="43.96151" lon="2.34531">
        <ele>317.85</ele>
        <time>2020-02-23T14:00:23Z</time>
      </trkpt>
      <trkpt lat="43.96148" lon="2.34525">
        <ele>317.85</ele>
        <time>2020-02-23T14:00:29Z</time>
      </trkpt>
      <trkpt lat="43.96148" lon="2.34513">
        <ele>315.93</ele>
        <time>2020-02-23T14:00:37Z</time>
      </trkpt>
      <trkpt lat="43.9615" lon="2.34507">
        <ele>314.49</ele>
        <time>2020-02-23T14:00:43Z</time>
      </trkpt>
      <trkpt lat="43.96149" lon="2.34496">
        <ele>315.45</ele>
        <time>2020-02-23T14:00:49Z</time>
      </trkpt>
      <trkpt lat="43.96147" lon="2.34495">
        <ele>313.53</ele>
        <time>2020-02-23T14:00:57Z</time>
      </trkpt>
      <trkpt lat="43.96138" lon="2.34507">
        <ele>313.05</ele>
        <time>2020-02-23T14:01:05Z</time>
      </trkpt>
      <trkpt lat="43.96131" lon="2.34511">
        <ele>311.12</ele>
        <time>2020-02-23T14:01:12Z</time>
      </trkpt>
      <trkpt lat="43.96126" lon="2.34516">
        <ele>306.8</ele>
        <time>2020-02-23T14:01:20Z</time>
      </trkpt>
      <trkpt lat="43.96114" lon="2.34528">
        <ele>308.24</ele>
        <time>2020-02-23T14:01:28Z</time>
      </trkpt>
      <trkpt lat="43.96107" lon="2.34538">
        <ele>309.68</ele>
        <time>2020-02-23T14:01:35Z</time>
      </trkpt>
      <trkpt lat="43.96103" lon="2.34553">
        <ele>306.8</ele>
        <time>2020-02-23T14:01:44Z</time>
      </trkpt>
      <trkpt lat="43.96098" lon="2.34568">
        <ele>303.91</ele>
        <time>2020-02-23T14:01:53Z</time>
      </trkpt>
      <trkpt lat="43.96093" lon="2.34582">
        <ele>301.51</ele>
        <time>2020-02-23T14:02:01Z</time>
      </trkpt>
      <trkpt lat="43.96085" lon="2.34598">
        <ele>300.07</ele>
        <time>2020-02-23T14:02:09Z</time>
      </trkpt>
      <trkpt lat="43.96079" lon="2.34611">
        <ele>298.63</ele>
        <time>2020-02-23T14:02:17Z</time>
      </trkpt>
      <trkpt lat="43.96074" lon="2.34625">
        <ele>298.63</ele>
        <time>2020-02-23T14:02:26Z</time>
      </trkpt>
      <trkpt lat="43.96069" lon="2.34639">
        <ele>297.18</ele>
        <time>2020-02-23T14:02:34Z</time>
      </trkpt>
      <trkpt lat="43.96064" lon="2.34655">
        <ele>296.22</ele>
        <time>2020-02-23T14:02:42Z</time>
      </trkpt>
      <trkpt lat="43.9606" lon="2.34668">
        <ele>294.78</ele>
        <time>2020-02-23T14:02:50Z</time>
      </trkpt>
      <trkpt lat="43.96057" lon="2.34679">
        <ele>292.86</ele>
        <time>2020-02-23T14:02:57Z</time>
      </trkpt>
      <trkpt lat="43.96053" lon="2.34693">
        <ele>290.94</ele>
        <time>2020-02-23T14:03:05Z</time>
      </trkpt>
      <trkpt lat="43.9605" lon="2.34702">
        <ele>289.97</ele>
        <time>2020-02-23T14:03:12Z</time>
      </trkpt>
      <trkpt lat="43.96037" lon="2.3471">
        <ele>288.05</ele>
        <time>2020-02-23T14:03:21Z</time>
      </trkpt>
      <trkpt lat="43.96034" lon="2.34704">
        <ele>287.57</ele>
        <time>2020-02-23T14:03:28Z</time>
      </trkpt>
      <trkpt lat="43.96032" lon="2.34691">
        <ele>285.65</ele>
        <time>2020-02-23T14:03:36Z</time>
      </trkpt>
      <trkpt lat="43.96031" lon="2.34677">
        <ele>283.73</ele>
        <time>2020-02-23T14:03:45Z</time>
      </trkpt>
      <trkpt lat="43.96027" lon="2.34671">
        <ele>282.77</ele>
        <time>2020-02-23T14:03:51Z</time>
      </trkpt>
      <trkpt lat="43.96025" lon="2.34674">
        <ele>278.92</ele>
        <time>2020-02-23T14:03:58Z</time>
      </trkpt>
      <trkpt lat="43.9602" lon="2.34681">
        <ele>276.52</ele>
        <time>2020-02-23T14:04:05Z</time>
      </trkpt>
      <trkpt lat="43.96012" lon="2.34689">
        <ele>273.15</ele>
        <time>2020-02-23T14:04:13Z</time>
      </trkpt>
      <trkpt lat="43.96009" lon="2.34692">
        <ele>272.67</ele>
        <time>2020-02-23T14:04:16Z</time>
      </trkpt>
      <trkpt lat="43.96" lon="2.34698">
        <ele>271.23</ele>
        <time>2020-02-23T14:04:23Z</time>
      </trkpt>
      <trkpt lat="43.95986" lon="2.34708">
        <ele>270.27</ele>
        <time>2020-02-23T14:04:31Z</time>
      </trkpt>
      <trkpt lat="43.95979" lon="2.34711">
        <ele>269.31</ele>
        <time>2020-02-23T14:04:35Z</time>
      </trkpt>
      <trkpt lat="43.95969" lon="2.3471">
        <ele>265.94</ele>
        <time>2020-02-23T14:04:43Z</time>
      </trkpt>
      <trkpt lat="43.95959" lon="2.34707">
        <ele>263.06</ele>
        <time>2020-02-23T14:04:51Z</time>
      </trkpt>
      <trkpt lat="43.95958" lon="2.34707">
        <ele>262.1</ele>
        <time>2020-02-23T14:04:52Z</time>
      </trkpt>
      <trkpt lat="43.95948" lon="2.34708">
        <ele>258.73</ele>
        <time>2020-02-23T14:05:00Z</time>
      </trkpt>
      <trkpt lat="43.95936" lon="2.34709">
        <ele>260.17</ele>
        <time>2020-02-23T14:05:07Z</time>
      </trkpt>
      <trkpt lat="43.95923" lon="2.34712">
        <ele>259.69</ele>
        <time>2020-02-23T14:05:14Z</time>
      </trkpt>
      <trkpt lat="43.95908" lon="2.34717">
        <ele>258.73</ele>
        <time>2020-02-23T14:05:22Z</time>
      </trkpt>
      <trkpt lat="43.95898" lon="2.34718">
        <ele>255.37</ele>
        <time>2020-02-23T14:05:31Z</time>
      </trkpt>
      <trkpt lat="43.9589" lon="2.34728">
        <ele>254.41</ele>
        <time>2020-02-23T14:05:39Z</time>
      </trkpt>
      <trkpt lat="43.95888" lon="2.3473">
        <ele>253.93</ele>
        <time>2020-02-23T14:05:41Z</time>
      </trkpt>
      <trkpt lat="43.95881" lon="2.34745">
        <ele>252.96</ele>
        <time>2020-02-23T14:05:50Z</time>
      </trkpt>
      <trkpt lat="43.95879" lon="2.34748">
        <ele>252.96</ele>
        <time>2020-02-23T14:05:52Z</time>
      </trkpt>
      <trkpt lat="43.95873" lon="2.34765">
        <ele>254.41</ele>
        <time>2020-02-23T14:06:00Z</time>
      </trkpt>
      <trkpt lat="43.95872" lon="2.34787">
        <ele>253.44</ele>
        <time>2020-02-23T14:06:10Z</time>
      </trkpt>
      <trkpt lat="43.95874" lon="2.34799">
        <ele>249.6</ele>
        <time>2020-02-23T14:06:18Z</time>
      </trkpt>
      <trkpt lat="43.95878" lon="2.34801">
        <ele>247.2</ele>
        <time>2020-02-23T14:06:22Z</time>
      </trkpt>
      <trkpt lat="43.95884" lon="2.34806">
        <ele>244.31</ele>
        <time>2020-02-23T14:06:30Z</time>
      </trkpt>
      <trkpt lat="43.95888" lon="2.34808">
        <ele>243.35</ele>
        <time>2020-02-23T14:06:34Z</time>
      </trkpt>
      <trkpt lat="43.95899" lon="2.34812">
        <ele>240.47</ele>
        <time>2020-02-23T14:06:43Z</time>
      </trkpt>
      <trkpt lat="43.95906" lon="2.34816">
        <ele>238.54</ele>
        <time>2020-02-23T14:06:49Z</time>
      </trkpt>
      <trkpt lat="43.95908" lon="2.34817">
        <ele>238.06</ele>
        <time>2020-02-23T14:06:51Z</time>
      </trkpt>
      <trkpt lat="43.9592" lon="2.34825">
        <ele>235.66</ele>
        <time>2020-02-23T14:06:59Z</time>
      </trkpt>
      <trkpt lat="43.95927" lon="2.34837">
        <ele>232.3</ele>
        <time>2020-02-23T14:07:07Z</time>
      </trkpt>
      <trkpt lat="43.95929" lon="2.3484">
        <ele>231.33</ele>
        <time>2020-02-23T14:07:09Z</time>
      </trkpt>
      <trkpt lat="43.9594" lon="2.34851">
        <ele>230.37</ele>
        <time>2020-02-23T14:07:18Z</time>
      </trkpt>
      <trkpt lat="43.95945" lon="2.3486">
        <ele>228.93</ele>
        <time>2020-02-23T14:07:26Z</time>
      </trkpt>
      <trkpt lat="43.95947" lon="2.34865">
        <ele>228.45</ele>
        <time>2020-02-23T14:07:29Z</time>
      </trkpt>
      <trkpt lat="43.95945" lon="2.34879">
        <ele>229.41</ele>
        <time>2020-02-23T14:07:38Z</time>
      </trkpt>
      <trkpt lat="43.95938" lon="2.34894">
        <ele>232.78</ele>
        <time>2020-02-23T14:07:48Z</time>
      </trkpt>
      <trkpt lat="43.95933" lon="2.34904">
        <ele>235.66</ele>
        <time>2020-02-23T14:07:56Z</time>
      </trkpt>
      <trkpt lat="43.95929" lon="2.34913">
        <ele>237.58</ele>
        <time>2020-02-23T14:08:04Z</time>
      </trkpt>
      <trkpt lat="43.95927" lon="2.34922">
        <ele>238.06</ele>
        <time>2020-02-23T14:08:10Z</time>
      </trkpt>
      <trkpt lat="43.95928" lon="2.34935">
        <ele>240.95</ele>
        <time>2020-02-23T14:08:18Z</time>
      </trkpt>
      <trkpt lat="43.95925" lon="2.3495">
        <ele>244.79</ele>
        <time>2020-02-23T14:08:26Z</time>
      </trkpt>
      <trkpt lat="43.95921" lon="2.34948">
        <ele>245.27</ele>
        <time>2020-02-23T14:08:34Z</time>
      </trkpt>
      <trkpt lat="43.95917" lon="2.34944">
        <ele>246.72</ele>
        <time>2020-02-23T14:08:41Z</time>
      </trkpt>
      <trkpt lat="43.95914" lon="2.34935">
        <ele>248.16</ele>
        <time>2020-02-23T14:08:48Z</time>
      </trkpt>
      <trkpt lat="43.95913" lon="2.34928">
        <ele>250.08</ele>
        <time>2020-02-23T14:08:55Z</time>
      </trkpt>
      <trkpt lat="43.95913" lon="2.34927">
        <ele>250.08</ele>
        <time>2020-02-23T14:08:56Z</time>
      </trkpt>
      <trkpt lat="43.95909" lon="2.34923">
        <ele>252.96</ele>
        <time>2020-02-23T14:09:04Z</time>
      </trkpt>
      <trkpt lat="43.95903" lon="2.34924">
        <ele>254.41</ele>
        <time>2020-02-23T14:09:12Z</time>
      </trkpt>
      <trkpt lat="43.95898" lon="2.34926">
        <ele>255.37</ele>
        <time>2020-02-23T14:09:19Z</time>
      </trkpt>
      <trkpt lat="43.9589" lon="2.34927">
        <ele>257.77</ele>
        <time>2020-02-23T14:09:26Z</time>
      </trkpt>
      <trkpt lat="43.95879" lon="2.34931">
        <ele>262.58</ele>
        <time>2020-02-23T14:09:36Z</time>
      </trkpt>
      <trkpt lat="43.95873" lon="2.34934">
        <ele>264.02</ele>
        <time>2020-02-23T14:09:44Z</time>
      </trkpt>
      <trkpt lat="43.95873" lon="2.34936">
        <ele>264.98</ele>
        <time>2020-02-23T14:09:49Z</time>
      </trkpt>
      <trkpt lat="43.95876" lon="2.3494">
        <ele>268.83</ele>
        <time>2020-02-23T14:09:56Z</time>
      </trkpt>
      <trkpt lat="43.95882" lon="2.34943">
        <ele>274.11</ele>
        <time>2020-02-23T14:10:07Z</time>
      </trkpt>
      <trkpt lat="43.95884" lon="2.34945">
        <ele>274.59</ele>
        <time>2020-02-23T14:10:09Z</time>
      </trkpt>
      <trkpt lat="43.95887" lon="2.34953">
        <ele>276.52</ele>
        <time>2020-02-23T14:10:18Z</time>
      </trkpt>
      <trkpt lat="43.95886" lon="2.34956">
        <ele>277.48</ele>
        <time>2020-02-23T14:10:23Z</time>
      </trkpt>
      <trkpt lat="43.95883" lon="2.34955">
        <ele>279.4</ele>
        <time>2020-02-23T14:10:27Z</time>
      </trkpt>
      <trkpt lat="43.95879" lon="2.34955">
        <ele>279.4</ele>
        <time>2020-02-23T14:10:31Z</time>
      </trkpt>
      <trkpt lat="43.95875" lon="2.34956">
        <ele>280.36</ele>
        <time>2020-02-23T14:10:35Z</time>
      </trkpt>
      <trkpt lat="43.95862" lon="2.34958">
        <ele>280.84</ele>
        <time>2020-02-23T14:10:45Z</time>
      </trkpt>
      <trkpt lat="43.9586" lon="2.34958">
        <ele>281.32</ele>
        <time>2020-02-23T14:10:48Z</time>
      </trkpt>
      <trkpt lat="43.95854" lon="2.34964">
        <ele>282.28</ele>
        <time>2020-02-23T14:10:55Z</time>
      </trkpt>
      <trkpt lat="43.95853" lon="2.34971">
        <ele>285.17</ele>
        <time>2020-02-23T14:11:02Z</time>
      </trkpt>
      <trkpt lat="43.95851" lon="2.3498">
        <ele>286.13</ele>
        <time>2020-02-23T14:11:10Z</time>
      </trkpt>
      <trkpt lat="43.9585" lon="2.34988">
        <ele>286.13</ele>
        <time>2020-02-23T14:11:17Z</time>
      </trkpt>
      <trkpt lat="43.9585" lon="2.34997">
        <ele>285.17</ele>
        <time>2020-02-23T14:11:25Z</time>
      </trkpt>
      <trkpt lat="43.95851" lon="2.35005">
        <ele>284.21</ele>
        <time>2020-02-23T14:11:32Z</time>
      </trkpt>
      <trkpt lat="43.95851" lon="2.35017">
        <ele>283.25</ele>
        <time>2020-02-23T14:11:39Z</time>
      </trkpt>
      <trkpt lat="43.95851" lon="2.3503">
        <ele>283.25</ele>
        <time>2020-02-23T14:11:47Z</time>
      </trkpt>
      <trkpt lat="43.95852" lon="2.35047">
        <ele>282.28</ele>
        <time>2020-02-23T14:11:56Z</time>
      </trkpt>
      <trkpt lat="43.95853" lon="2.35059">
        <ele>281.8</ele>
        <time>2020-02-23T14:12:04Z</time>
      </trkpt>
      <trkpt lat="43.95855" lon="2.35078">
        <ele>285.17</ele>
        <time>2020-02-23T14:12:12Z</time>
      </trkpt>
      <trkpt lat="43.9586" lon="2.35095">
        <ele>291.42</ele>
        <time>2020-02-23T14:12:20Z</time>
      </trkpt>
      <trkpt lat="43.95863" lon="2.35108">
        <ele>298.63</ele>
        <time>2020-02-23T14:12:27Z</time>
      </trkpt>
      <trkpt lat="43.95867" lon="2.3512">
        <ele>303.43</ele>
        <time>2020-02-23T14:12:35Z</time>
      </trkpt>
      <trkpt lat="43.95868" lon="2.35133">
        <ele>307.28</ele>
        <time>2020-02-23T14:12:44Z</time>
      </trkpt>
      <trkpt lat="43.95864" lon="2.35148">
        <ele>306.32</ele>
        <time>2020-02-23T14:12:56Z</time>
      </trkpt>
      <trkpt lat="43.95862" lon="2.35151">
        <ele>305.84</ele>
        <time>2020-02-23T14:12:58Z</time>
      </trkpt>
      <trkpt lat="43.95857" lon="2.35157">
        <ele>306.8</ele>
        <time>2020-02-23T14:13:04Z</time>
      </trkpt>
      <trkpt lat="43.95852" lon="2.35165">
        <ele>309.2</ele>
        <time>2020-02-23T14:13:11Z</time>
      </trkpt>
      <trkpt lat="43.9585" lon="2.35173">
        <ele>313.53</ele>
        <time>2020-02-23T14:13:17Z</time>
      </trkpt>
      <trkpt lat="43.95854" lon="2.3518">
        <ele>314.97</ele>
        <time>2020-02-23T14:13:24Z</time>
      </trkpt>
      <trkpt lat="43.9586" lon="2.35187">
        <ele>316.89</ele>
        <time>2020-02-23T14:13:32Z</time>
      </trkpt>
      <trkpt lat="43.95868" lon="2.35199">
        <ele>320.74</ele>
        <time>2020-02-23T14:13:41Z</time>
      </trkpt>
      <trkpt lat="43.95869" lon="2.35209">
        <ele>320.26</ele>
        <time>2020-02-23T14:13:50Z</time>
      </trkpt>
      <trkpt lat="43.95868" lon="2.35217">
        <ele>320.26</ele>
        <time>2020-02-23T14:13:58Z</time>
      </trkpt>
      <trkpt lat="43.95866" lon="2.35226">
        <ele>319.78</ele>
        <time>2020-02-23T14:14:05Z</time>
      </trkpt>
      <trkpt lat="43.95864" lon="2.35243">
        <ele>322.18</ele>
        <time>2020-02-23T14:14:14Z</time>
      </trkpt>
      <trkpt lat="43.95861" lon="2.35254">
        <ele>322.66</ele>
        <time>2020-02-23T14:14:22Z</time>
      </trkpt>
      <trkpt lat="43.95858" lon="2.35264">
        <ele>324.58</ele>
        <time>2020-02-23T14:14:30Z</time>
      </trkpt>
      <trkpt lat="43.95856" lon="2.35273">
        <ele>325.06</ele>
        <time>2020-02-23T14:14:37Z</time>
      </trkpt>
      <trkpt lat="43.95853" lon="2.3528">
        <ele>324.1</ele>
        <time>2020-02-23T14:14:44Z</time>
      </trkpt>
      <trkpt lat="43.95847" lon="2.35288">
        <ele>323.62</ele>
        <time>2020-02-23T14:14:51Z</time>
      </trkpt>
      <trkpt lat="43.95843" lon="2.35302">
        <ele>325.06</ele>
        <time>2020-02-23T14:15:00Z</time>
      </trkpt>
      <trkpt lat="43.95837" lon="2.35309">
        <ele>328.43</ele>
        <time>2020-02-23T14:15:10Z</time>
      </trkpt>
      <trkpt lat="43.95835" lon="2.35313">
        <ele>329.39</ele>
        <time>2020-02-23T14:15:16Z</time>
      </trkpt>
      <trkpt lat="43.95833" lon="2.35318">
        <ele>332.75</ele>
        <time>2020-02-23T14:15:25Z</time>
      </trkpt>
      <trkpt lat="43.95832" lon="2.35334">
        <ele>340.92</ele>
        <time>2020-02-23T14:15:38Z</time>
      </trkpt>
      <trkpt lat="43.95829" lon="2.35337">
        <ele>341.41</ele>
        <time>2020-02-23T14:15:46Z</time>
      </trkpt>
      <trkpt lat="43.95823" lon="2.35341">
        <ele>342.37</ele>
        <time>2020-02-23T14:15:53Z</time>
      </trkpt>
      <trkpt lat="43.95815" lon="2.35347">
        <ele>344.77</ele>
        <time>2020-02-23T14:16:03Z</time>
      </trkpt>
      <trkpt lat="43.95808" lon="2.35355">
        <ele>348.62</ele>
        <time>2020-02-23T14:16:12Z</time>
      </trkpt>
      <trkpt lat="43.95811" lon="2.35367">
        <ele>354.86</ele>
        <time>2020-02-23T14:16:20Z</time>
      </trkpt>
      <trkpt lat="43.95816" lon="2.35372">
        <ele>356.31</ele>
        <time>2020-02-23T14:16:28Z</time>
      </trkpt>
      <trkpt lat="43.95822" lon="2.35378">
        <ele>356.79</ele>
        <time>2020-02-23T14:16:34Z</time>
      </trkpt>
      <trkpt lat="43.95831" lon="2.35386">
        <ele>356.79</ele>
        <time>2020-02-23T14:16:43Z</time>
      </trkpt>
      <trkpt lat="43.95843" lon="2.35396">
        <ele>354.86</ele>
        <time>2020-02-23T14:16:53Z</time>
      </trkpt>
      <trkpt lat="43.95851" lon="2.35405">
        <ele>356.31</ele>
        <time>2020-02-23T14:17:02Z</time>
      </trkpt>
      <trkpt lat="43.9586" lon="2.35422">
        <ele>361.11</ele>
        <time>2020-02-23T14:17:11Z</time>
      </trkpt>
      <trkpt lat="43.95863" lon="2.3544">
        <ele>366.4</ele>
        <time>2020-02-23T14:17:20Z</time>
      </trkpt>
      <trkpt lat="43.9586" lon="2.35457">
        <ele>368.8</ele>
        <time>2020-02-23T14:17:30Z</time>
      </trkpt>
      <trkpt lat="43.95857" lon="2.3547">
        <ele>369.76</ele>
        <time>2020-02-23T14:17:39Z</time>
      </trkpt>
      <trkpt lat="43.95852" lon="2.3548">
        <ele>369.76</ele>
        <time>2020-02-23T14:17:47Z</time>
      </trkpt>
      <trkpt lat="43.95848" lon="2.35484">
        <ele>369.76</ele>
        <time>2020-02-23T14:17:51Z</time>
      </trkpt>
      <trkpt lat="43.95837" lon="2.35492">
        <ele>371.21</ele>
        <time>2020-02-23T14:18:02Z</time>
      </trkpt>
      <trkpt lat="43.95826" lon="2.35496">
        <ele>371.69</ele>
        <time>2020-02-23T14:18:10Z</time>
      </trkpt>
      <trkpt lat="43.95815" lon="2.35497">
        <ele>373.13</ele>
        <time>2020-02-23T14:18:19Z</time>
      </trkpt>
      <trkpt lat="43.95805" lon="2.35495">
        <ele>374.09</ele>
        <time>2020-02-23T14:18:27Z</time>
      </trkpt>
      <trkpt lat="43.95796" lon="2.35491">
        <ele>373.61</ele>
        <time>2020-02-23T14:18:36Z</time>
      </trkpt>
      <trkpt lat="43.95788" lon="2.35486">
        <ele>373.61</ele>
        <time>2020-02-23T14:18:43Z</time>
      </trkpt>
      <trkpt lat="43.95777" lon="2.35475">
        <ele>376.49</ele>
        <time>2020-02-23T14:18:53Z</time>
      </trkpt>
      <trkpt lat="43.95768" lon="2.35467">
        <ele>378.42</ele>
        <time>2020-02-23T14:19:01Z</time>
      </trkpt>
      <trkpt lat="43.95758" lon="2.35457">
        <ele>377.45</ele>
        <time>2020-02-23T14:19:11Z</time>
      </trkpt>
      <trkpt lat="43.95747" lon="2.35448">
        <ele>377.94</ele>
        <time>2020-02-23T14:19:21Z</time>
      </trkpt>
      <trkpt lat="43.95735" lon="2.35438">
        <ele>383.7</ele>
        <time>2020-02-23T14:19:32Z</time>
      </trkpt>
      <trkpt lat="43.95726" lon="2.3543">
        <ele>384.66</ele>
        <time>2020-02-23T14:19:42Z</time>
      </trkpt>
      <trkpt lat="43.95718" lon="2.35423">
        <ele>386.59</ele>
        <time>2020-02-23T14:19:50Z</time>
      </trkpt>
      <trkpt lat="43.9571" lon="2.35419">
        <ele>389.47</ele>
        <time>2020-02-23T14:19:58Z</time>
      </trkpt>
      <trkpt lat="43.95702" lon="2.35424">
        <ele>391.87</ele>
        <time>2020-02-23T14:20:07Z</time>
      </trkpt>
      <trkpt lat="43.95699" lon="2.35427">
        <ele>391.87</ele>
        <time>2020-02-23T14:20:11Z</time>
      </trkpt>
      <trkpt lat="43.95689" lon="2.35438">
        <ele>392.84</ele>
        <time>2020-02-23T14:20:22Z</time>
      </trkpt>
      <trkpt lat="43.95681" lon="2.35446">
        <ele>393.8</ele>
        <time>2020-02-23T14:20:31Z</time>
      </trkpt>
      <trkpt lat="43.95673" lon="2.35453">
        <ele>394.76</ele>
        <time>2020-02-23T14:20:41Z</time>
      </trkpt>
      <trkpt lat="43.95668" lon="2.35458">
        <ele>395.24</ele>
        <time>2020-02-23T14:20:48Z</time>
      </trkpt>
      <trkpt lat="43.95659" lon="2.35467">
        <ele>397.64</ele>
        <time>2020-02-23T14:20:56Z</time>
      </trkpt>
      <trkpt lat="43.95649" lon="2.35473">
        <ele>399.57</ele>
        <time>2020-02-23T14:21:05Z</time>
      </trkpt>
      <trkpt lat="43.95638" lon="2.3548">
        <ele>401.49</ele>
        <time>2020-02-23T14:21:14Z</time>
      </trkpt>
      <trkpt lat="43.95624" lon="2.3549">
        <ele>402.45</ele>
        <time>2020-02-23T14:21:24Z</time>
      </trkpt>
      <trkpt lat="43.9561" lon="2.35503">
        <ele>402.93</ele>
        <time>2020-02-23T14:21:35Z</time>
      </trkpt>
      <trkpt lat="43.95603" lon="2.35521">
        <ele>403.89</ele>
        <time>2020-02-23T14:21:45Z</time>
      </trkpt>
      <trkpt lat="43.95595" lon="2.35538">
        <ele>402.45</ele>
        <time>2020-02-23T14:21:55Z</time>
      </trkpt>
      <trkpt lat="43.95589" lon="2.35554">
        <ele>402.45</ele>
        <time>2020-02-23T14:22:04Z</time>
      </trkpt>
      <trkpt lat="43.95582" lon="2.35566">
        <ele>402.93</ele>
        <time>2020-02-23T14:22:12Z</time>
      </trkpt>
      <trkpt lat="43.95572" lon="2.3558">
        <ele>403.41</ele>
        <time>2020-02-23T14:22:21Z</time>
      </trkpt>
      <trkpt lat="43.95572" lon="2.35582">
        <ele>403.41</ele>
        <time>2020-02-23T14:22:22Z</time>
      </trkpt>
      <trkpt lat="43.95568" lon="2.35588">
        <ele>403.41</ele>
        <time>2020-02-23T14:22:26Z</time>
      </trkpt>
      <trkpt lat="43.95556" lon="2.35607">
        <ele>404.85</ele>
        <time>2020-02-23T14:22:38Z</time>
      </trkpt>
      <trkpt lat="43.95547" lon="2.35623">
        <ele>404.37</ele>
        <time>2020-02-23T14:22:49Z</time>
      </trkpt>
      <trkpt lat="43.95539" lon="2.35639">
        <ele>404.85</ele>
        <time>2020-02-23T14:22:59Z</time>
      </trkpt>
      <trkpt lat="43.9553" lon="2.35659">
        <ele>405.81</ele>
        <time>2020-02-23T14:23:11Z</time>
      </trkpt>
      <trkpt lat="43.95523" lon="2.35677">
        <ele>407.26</ele>
        <time>2020-02-23T14:23:22Z</time>
      </trkpt>
      <trkpt lat="43.95516" lon="2.35697">
        <ele>406.77</ele>
        <time>2020-02-23T14:23:33Z</time>
      </trkpt>
      <trkpt lat="43.9551" lon="2.3572">
        <ele>408.7</ele>
        <time>2020-02-23T14:23:45Z</time>
      </trkpt>
      <trkpt lat="43.95504" lon="2.35745">
        <ele>411.1</ele>
        <time>2020-02-23T14:23:58Z</time>
      </trkpt>
      <trkpt lat="43.95502" lon="2.35767">
        <ele>411.58</ele>
        <time>2020-02-23T14:24:09Z</time>
      </trkpt>
      <trkpt lat="43.95498" lon="2.35785">
        <ele>412.06</ele>
        <time>2020-02-23T14:24:19Z</time>
      </trkpt>
      <trkpt lat="43.95498" lon="2.35787">
        <ele>412.06</ele>
        <time>2020-02-23T14:24:20Z</time>
      </trkpt>
      <trkpt lat="43.95491" lon="2.35805">
        <ele>414.47</ele>
        <time>2020-02-23T14:24:32Z</time>
      </trkpt>
      <trkpt lat="43.95486" lon="2.35818">
        <ele>415.43</ele>
        <time>2020-02-23T14:24:41Z</time>
      </trkpt>
      <trkpt lat="43.95481" lon="2.35835">
        <ele>415.91</ele>
        <time>2020-02-23T14:24:51Z</time>
      </trkpt>
      <trkpt lat="43.95474" lon="2.35854">
        <ele>414.95</ele>
        <time>2020-02-23T14:25:01Z</time>
      </trkpt>
      <trkpt lat="43.95469" lon="2.35865">
        <ele>413.5</ele>
        <time>2020-02-23T14:25:08Z</time>
      </trkpt>
      <trkpt lat="43.95469" lon="2.35867">
        <ele>413.5</ele>
        <time>2020-02-23T14:25:09Z</time>
      </trkpt>
      <trkpt lat="43.95463" lon="2.35882">
        <ele>412.54</ele>
        <time>2020-02-23T14:25:18Z</time>
      </trkpt>
      <trkpt lat="43.95459" lon="2.35893">
        <ele>411.1</ele>
        <time>2020-02-23T14:25:24Z</time>
      </trkpt>
      <trkpt lat="43.95453" lon="2.35908">
        <ele>410.14</ele>
        <time>2020-02-23T14:25:32Z</time>
      </trkpt>
      <trkpt lat="43.95449" lon="2.35921">
        <ele>408.7</ele>
        <time>2020-02-23T14:25:39Z</time>
      </trkpt>
      <trkpt lat="43.95445" lon="2.35933">
        <ele>407.74</ele>
        <time>2020-02-23T14:25:46Z</time>
      </trkpt>
      <trkpt lat="43.95437" lon="2.35938">
        <ele>404.85</ele>
        <time>2020-02-23T14:25:55Z</time>
      </trkpt>
      <trkpt lat="43.95425" lon="2.35943">
        <ele>401.49</ele>
        <time>2020-02-23T14:26:04Z</time>
      </trkpt>
      <trkpt lat="43.95412" lon="2.35955">
        <ele>397.64</ele>
        <time>2020-02-23T14:26:13Z</time>
      </trkpt>
      <trkpt lat="43.95404" lon="2.35968">
        <ele>397.64</ele>
        <time>2020-02-23T14:26:21Z</time>
      </trkpt>
      <trkpt lat="43.95396" lon="2.35984">
        <ele>396.68</ele>
        <time>2020-02-23T14:26:31Z</time>
      </trkpt>
      <trkpt lat="43.95393" lon="2.35989">
        <ele>396.68</ele>
        <time>2020-02-23T14:26:34Z</time>
      </trkpt>
      <trkpt lat="43.95387" lon="2.36003">
        <ele>396.68</ele>
        <time>2020-02-23T14:26:42Z</time>
      </trkpt>
      <trkpt lat="43.9538" lon="2.36014">
        <ele>395.24</ele>
        <time>2020-02-23T14:26:50Z</time>
      </trkpt>
      <trkpt lat="43.95373" lon="2.3603">
        <ele>393.8</ele>
        <time>2020-02-23T14:26:59Z</time>
      </trkpt>
      <trkpt lat="43.95367" lon="2.36045">
        <ele>393.32</ele>
        <time>2020-02-23T14:27:07Z</time>
      </trkpt>
      <trkpt lat="43.95361" lon="2.36062">
        <ele>391.87</ele>
        <time>2020-02-23T14:27:16Z</time>
      </trkpt>
      <trkpt lat="43.95354" lon="2.36077">
        <ele>389.95</ele>
        <time>2020-02-23T14:27:24Z</time>
      </trkpt>
      <trkpt lat="43.95348" lon="2.36092">
        <ele>388.99</ele>
        <time>2020-02-23T14:27:32Z</time>
      </trkpt>
      <trkpt lat="43.95343" lon="2.36105">
        <ele>388.03</ele>
        <time>2020-02-23T14:27:40Z</time>
      </trkpt>
      <trkpt lat="43.95337" lon="2.36119">
        <ele>387.55</ele>
        <time>2020-02-23T14:27:49Z</time>
      </trkpt>
      <trkpt lat="43.95331" lon="2.36136">
        <ele>386.11</ele>
        <time>2020-02-23T14:27:58Z</time>
      </trkpt>
      <trkpt lat="43.95325" lon="2.36149">
        <ele>382.74</ele>
        <time>2020-02-23T14:28:05Z</time>
      </trkpt>
      <trkpt lat="43.95319" lon="2.36163">
        <ele>379.38</ele>
        <time>2020-02-23T14:28:12Z</time>
      </trkpt>
      <trkpt lat="43.95313" lon="2.36176">
        <ele>377.45</ele>
        <time>2020-02-23T14:28:20Z</time>
      </trkpt>
      <trkpt lat="43.95308" lon="2.36193">
        <ele>376.97</ele>
        <time>2020-02-23T14:28:28Z</time>
      </trkpt>
      <trkpt lat="43.95302" lon="2.36207">
        <ele>375.53</ele>
        <time>2020-02-23T14:28:36Z</time>
      </trkpt>
      <trkpt lat="43.95296" lon="2.36218">
        <ele>375.05</ele>
        <time>2020-02-23T14:28:42Z</time>
      </trkpt>
      <trkpt lat="43.95286" lon="2.36232">
        <ele>375.05</ele>
        <time>2020-02-23T14:28:51Z</time>
      </trkpt>
      <trkpt lat="43.95277" lon="2.36244">
        <ele>373.61</ele>
        <time>2020-02-23T14:28:59Z</time>
      </trkpt>
      <trkpt lat="43.95268" lon="2.36252">
        <ele>372.65</ele>
        <time>2020-02-23T14:29:07Z</time>
      </trkpt>
      <trkpt lat="43.95259" lon="2.36253">
        <ele>369.28</ele>
        <time>2020-02-23T14:29:15Z</time>
      </trkpt>
      <trkpt lat="43.95249" lon="2.36255">
        <ele>367.36</ele>
        <time>2020-02-23T14:29:22Z</time>
      </trkpt>
      <trkpt lat="43.9524" lon="2.36256">
        <ele>364.96</ele>
        <time>2020-02-23T14:29:31Z</time>
      </trkpt>
      <trkpt lat="43.95228" lon="2.36253">
        <ele>360.15</ele>
        <time>2020-02-23T14:29:39Z</time>
      </trkpt>
      <trkpt lat="43.9522" lon="2.36251">
        <ele>354.38</ele>
        <time>2020-02-23T14:29:46Z</time>
      </trkpt>
      <trkpt lat="43.95209" lon="2.36248">
        <ele>349.1</ele>
        <time>2020-02-23T14:29:55Z</time>
      </trkpt>
      <trkpt lat="43.95196" lon="2.36252">
        <ele>350.54</ele>
        <time>2020-02-23T14:30:03Z</time>
      </trkpt>
      <trkpt lat="43.95186" lon="2.36261">
        <ele>349.58</ele>
        <time>2020-02-23T14:30:11Z</time>
      </trkpt>
      <trkpt lat="43.95177" lon="2.36268">
        <ele>348.13</ele>
        <time>2020-02-23T14:30:19Z</time>
      </trkpt>
      <trkpt lat="43.95169" lon="2.36276">
        <ele>346.21</ele>
        <time>2020-02-23T14:30:26Z</time>
      </trkpt>
      <trkpt lat="43.95159" lon="2.36284">
        <ele>344.29</ele>
        <time>2020-02-23T14:30:33Z</time>
      </trkpt>
      <trkpt lat="43.9515" lon="2.36289">
        <ele>342.85</ele>
        <time>2020-02-23T14:30:40Z</time>
      </trkpt>
      <trkpt lat="43.9514" lon="2.36296">
        <ele>342.37</ele>
        <time>2020-02-23T14:30:47Z</time>
      </trkpt>
      <trkpt lat="43.95131" lon="2.36303">
        <ele>340.92</ele>
        <time>2020-02-23T14:30:54Z</time>
      </trkpt>
      <trkpt lat="43.95123" lon="2.36306">
        <ele>338.52</ele>
        <time>2020-02-23T14:31:03Z</time>
      </trkpt>
      <trkpt lat="43.95117" lon="2.36308">
        <ele>336.6</ele>
        <time>2020-02-23T14:31:08Z</time>
      </trkpt>
      <trkpt lat="43.95102" lon="2.36311">
        <ele>332.75</ele>
        <time>2020-02-23T14:31:18Z</time>
      </trkpt>
      <trkpt lat="43.95097" lon="2.36306">
        <ele>330.83</ele>
        <time>2020-02-23T14:31:24Z</time>
      </trkpt>
      <trkpt lat="43.95088" lon="2.363">
        <ele>327.95</ele>
        <time>2020-02-23T14:31:33Z</time>
      </trkpt>
      <trkpt lat="43.95085" lon="2.363">
        <ele>328.43</ele>
        <time>2020-02-23T14:31:35Z</time>
      </trkpt>
      <trkpt lat="43.95079" lon="2.36309">
        <ele>326.5</ele>
        <time>2020-02-23T14:31:43Z</time>
      </trkpt>
      <trkpt lat="43.95073" lon="2.36319">
        <ele>324.1</ele>
        <time>2020-02-23T14:31:50Z</time>
      </trkpt>
      <trkpt lat="43.95068" lon="2.36326">
        <ele>321.7</ele>
        <time>2020-02-23T14:31:55Z</time>
      </trkpt>
      <trkpt lat="43.95058" lon="2.36338">
        <ele>320.74</ele>
        <time>2020-02-23T14:32:02Z</time>
      </trkpt>
      <trkpt lat="43.95047" lon="2.3635">
        <ele>320.26</ele>
        <time>2020-02-23T14:32:09Z</time>
      </trkpt>
      <trkpt lat="43.95043" lon="2.3635">
        <ele>317.85</ele>
        <time>2020-02-23T14:32:12Z</time>
      </trkpt>
      <trkpt lat="43.95031" lon="2.36364">
        <ele>317.37</ele>
        <time>2020-02-23T14:32:21Z</time>
      </trkpt>
      <trkpt lat="43.95025" lon="2.36371">
        <ele>316.89</ele>
        <time>2020-02-23T14:32:26Z</time>
      </trkpt>
      <trkpt lat="43.95029" lon="2.3638">
        <ele>317.37</ele>
        <time>2020-02-23T14:32:31Z</time>
      </trkpt>
      <trkpt lat="43.95031" lon="2.36382">
        <ele>318.81</ele>
        <time>2020-02-23T14:32:34Z</time>
      </trkpt>
      <trkpt lat="43.95042" lon="2.3638">
        <ele>319.78</ele>
        <time>2020-02-23T14:32:41Z</time>
      </trkpt>
      <trkpt lat="43.95053" lon="2.36378">
        <ele>320.74</ele>
        <time>2020-02-23T14:32:49Z</time>
      </trkpt>
      <trkpt lat="43.95059" lon="2.36377">
        <ele>319.3</ele>
        <time>2020-02-23T14:32:56Z</time>
      </trkpt>
      <trkpt lat="43.95066" lon="2.36371">
        <ele>316.41</ele>
        <time>2020-02-23T14:33:05Z</time>
      </trkpt>
      <trkpt lat="43.95068" lon="2.3637">
        <ele>315.93</ele>
        <time>2020-02-23T14:33:07Z</time>
      </trkpt>
      <trkpt lat="43.95079" lon="2.36376">
        <ele>314.01</ele>
        <time>2020-02-23T14:33:16Z</time>
      </trkpt>
      <trkpt lat="43.95085" lon="2.36377">
        <ele>313.05</ele>
        <time>2020-02-23T14:33:19Z</time>
      </trkpt>
      <trkpt lat="43.95095" lon="2.36377">
        <ele>309.68</ele>
        <time>2020-02-23T14:33:26Z</time>
      </trkpt>
      <trkpt lat="43.95104" lon="2.3638">
        <ele>307.76</ele>
        <time>2020-02-23T14:33:33Z</time>
      </trkpt>
      <trkpt lat="43.95104" lon="2.36387">
        <ele>308.72</ele>
        <time>2020-02-23T14:33:38Z</time>
      </trkpt>
      <trkpt lat="43.951" lon="2.36398">
        <ele>308.72</ele>
        <time>2020-02-23T14:33:44Z</time>
      </trkpt>
      <trkpt lat="43.95095" lon="2.36416">
        <ele>306.8</ele>
        <time>2020-02-23T14:33:54Z</time>
      </trkpt>
      <trkpt lat="43.95091" lon="2.36427">
        <ele>301.51</ele>
        <time>2020-02-23T14:34:02Z</time>
      </trkpt>
      <trkpt lat="43.95081" lon="2.36437">
        <ele>300.55</ele>
        <time>2020-02-23T14:34:12Z</time>
      </trkpt>
      <trkpt lat="43.95072" lon="2.36451">
        <ele>303.91</ele>
        <time>2020-02-23T14:34:19Z</time>
      </trkpt>
      <trkpt lat="43.95062" lon="2.36468">
        <ele>308.72</ele>
        <time>2020-02-23T14:34:26Z</time>
      </trkpt>
      <trkpt lat="43.95054" lon="2.36484">
        <ele>312.57</ele>
        <time>2020-02-23T14:34:35Z</time>
      </trkpt>
      <trkpt lat="43.95048" lon="2.36504">
        <ele>317.37</ele>
        <time>2020-02-23T14:34:44Z</time>
      </trkpt>
      <trkpt lat="43.95044" lon="2.36518">
        <ele>319.78</ele>
        <time>2020-02-23T14:34:51Z</time>
      </trkpt>
      <trkpt lat="43.95043" lon="2.36522">
        <ele>319.78</ele>
        <time>2020-02-23T14:34:53Z</time>
      </trkpt>
      <trkpt lat="43.95037" lon="2.36536">
        <ele>320.74</ele>
        <time>2020-02-23T14:35:01Z</time>
      </trkpt>
      <trkpt lat="43.95031" lon="2.36546">
        <ele>320.74</ele>
        <time>2020-02-23T14:35:08Z</time>
      </trkpt>
      <trkpt lat="43.95023" lon="2.36555">
        <ele>319.3</ele>
        <time>2020-02-23T14:35:16Z</time>
      </trkpt>
      <trkpt lat="43.95021" lon="2.36556">
        <ele>318.81</ele>
        <time>2020-02-23T14:35:18Z</time>
      </trkpt>
      <trkpt lat="43.95009" lon="2.36564">
        <ele>317.37</ele>
        <time>2020-02-23T14:35:28Z</time>
      </trkpt>
      <trkpt lat="43.95" lon="2.36569">
        <ele>314.97</ele>
        <time>2020-02-23T14:35:35Z</time>
      </trkpt>
      <trkpt lat="43.94989" lon="2.36579">
        <ele>314.01</ele>
        <time>2020-02-23T14:35:43Z</time>
      </trkpt>
      <trkpt lat="43.94978" lon="2.36587">
        <ele>314.01</ele>
        <time>2020-02-23T14:35:52Z</time>
      </trkpt>
      <trkpt lat="43.94969" lon="2.36597">
        <ele>313.53</ele>
        <time>2020-02-23T14:36:00Z</time>
      </trkpt>
      <trkpt lat="43.94967" lon="2.36599">
        <ele>313.53</ele>
        <time>2020-02-23T14:36:01Z</time>
      </trkpt>
      <trkpt lat="43.94956" lon="2.36613">
        <ele>313.05</ele>
        <time>2020-02-23T14:36:10Z</time>
      </trkpt>
      <trkpt lat="43.94948" lon="2.36624">
        <ele>314.97</ele>
        <time>2020-02-23T14:36:17Z</time>
      </trkpt>
      <trkpt lat="43.9494" lon="2.36634">
        <ele>315.93</ele>
        <time>2020-02-23T14:36:26Z</time>
      </trkpt>
      <trkpt lat="43.94933" lon="2.3665">
        <ele>315.45</ele>
        <time>2020-02-23T14:36:34Z</time>
      </trkpt>
      <trkpt lat="43.94927" lon="2.36669">
        <ele>307.76</ele>
        <time>2020-02-23T14:36:43Z</time>
      </trkpt>
      <trkpt lat="43.94925" lon="2.36677">
        <ele>302.95</ele>
        <time>2020-02-23T14:36:46Z</time>
      </trkpt>
      <trkpt lat="43.94921" lon="2.3669">
        <ele>296.22</ele>
        <time>2020-02-23T14:36:52Z</time>
      </trkpt>
      <trkpt lat="43.94916" lon="2.3671">
        <ele>295.74</ele>
        <time>2020-02-23T14:37:00Z</time>
      </trkpt>
      <trkpt lat="43.94914" lon="2.36715">
        <ele>296.22</ele>
        <time>2020-02-23T14:37:03Z</time>
      </trkpt>
      <trkpt lat="43.94908" lon="2.36716">
        <ele>294.78</ele>
        <time>2020-02-23T14:37:08Z</time>
      </trkpt>
      <trkpt lat="43.94908" lon="2.367">
        <ele>289.97</ele>
        <time>2020-02-23T14:37:19Z</time>
      </trkpt>
      <trkpt lat="43.94908" lon="2.36699">
        <ele>289.49</ele>
        <time>2020-02-23T14:37:20Z</time>
      </trkpt>
      <trkpt lat="43.94907" lon="2.36692">
        <ele>287.57</ele>
        <time>2020-02-23T14:37:24Z</time>
      </trkpt>
      <trkpt lat="43.94907" lon="2.36679">
        <ele>284.69</ele>
        <time>2020-02-23T14:37:32Z</time>
      </trkpt>
      <trkpt lat="43.94907" lon="2.36674">
        <ele>284.21</ele>
        <time>2020-02-23T14:37:34Z</time>
      </trkpt>
      <trkpt lat="43.94909" lon="2.36657">
        <ele>280.36</ele>
        <time>2020-02-23T14:37:42Z</time>
      </trkpt>
      <trkpt lat="43.94909" lon="2.36653">
        <ele>278.92</ele>
        <time>2020-02-23T14:37:44Z</time>
      </trkpt>
      <trkpt lat="43.94908" lon="2.36637">
        <ele>270.27</ele>
        <time>2020-02-23T14:37:53Z</time>
      </trkpt>
      <trkpt lat="43.94909" lon="2.36628">
        <ele>263.54</ele>
        <time>2020-02-23T14:38:00Z</time>
      </trkpt>
      <trkpt lat="43.9491" lon="2.36617">
        <ele>258.73</ele>
        <time>2020-02-23T14:38:07Z</time>
      </trkpt>
      <trkpt lat="43.94906" lon="2.36615">
        <ele>258.73</ele>
        <time>2020-02-23T14:38:15Z</time>
      </trkpt>
      <trkpt lat="43.94898" lon="2.36614">
        <ele>258.25</ele>
        <time>2020-02-23T14:38:21Z</time>
      </trkpt>
      <trkpt lat="43.9489" lon="2.36617">
        <ele>257.29</ele>
        <time>2020-02-23T14:38:27Z</time>
      </trkpt>
      <trkpt lat="43.94885" lon="2.36622">
        <ele>256.81</ele>
        <time>2020-02-23T14:38:32Z</time>
      </trkpt>
      <trkpt lat="43.9488" lon="2.36632">
        <ele>255.37</ele>
        <time>2020-02-23T14:38:38Z</time>
      </trkpt>
      <trkpt lat="43.94876" lon="2.3665">
        <ele>253.93</ele>
        <time>2020-02-23T14:38:46Z</time>
      </trkpt>
      <trkpt lat="43.94875" lon="2.36664">
        <ele>248.64</ele>
        <time>2020-02-23T14:38:54Z</time>
      </trkpt>
      <trkpt lat="43.94874" lon="2.36674">
        <ele>246.23</ele>
        <time>2020-02-23T14:38:59Z</time>
      </trkpt>
      <trkpt lat="43.94869" lon="2.36692">
        <ele>245.75</ele>
        <time>2020-02-23T14:39:07Z</time>
      </trkpt>
      <trkpt lat="43.94862" lon="2.36701">
        <ele>246.23</ele>
        <time>2020-02-23T14:39:15Z</time>
      </trkpt>
      <trkpt lat="43.94861" lon="2.36705">
        <ele>245.75</ele>
        <time>2020-02-23T14:39:17Z</time>
      </trkpt>
      <trkpt lat="43.94857" lon="2.36722">
        <ele>243.35</ele>
        <time>2020-02-23T14:39:26Z</time>
      </trkpt>
      <trkpt lat="43.94857" lon="2.36724">
        <ele>242.87</ele>
        <time>2020-02-23T14:39:27Z</time>
      </trkpt>
      <trkpt lat="43.94862" lon="2.36732">
        <ele>238.06</ele>
        <time>2020-02-23T14:39:34Z</time>
      </trkpt>
      <trkpt lat="43.94865" lon="2.3674">
        <ele>236.62</ele>
        <time>2020-02-23T14:39:39Z</time>
      </trkpt>
      <trkpt lat="43.94869" lon="2.36763">
        <ele>237.58</ele>
        <time>2020-02-23T14:39:49Z</time>
      </trkpt>
      <trkpt lat="43.94867" lon="2.36792">
        <ele>247.2</ele>
        <time>2020-02-23T14:39:57Z</time>
      </trkpt>
      <trkpt lat="43.94865" lon="2.36804">
        <ele>248.64</ele>
        <time>2020-02-23T14:40:02Z</time>
      </trkpt>
      <trkpt lat="43.94854" lon="2.36825">
        <ele>248.64</ele>
        <time>2020-02-23T14:40:13Z</time>
      </trkpt>
      <trkpt lat="43.94842" lon="2.3684">
        <ele>249.6</ele>
        <time>2020-02-23T14:40:24Z</time>
      </trkpt>
      <trkpt lat="43.94832" lon="2.3685">
        <ele>249.6</ele>
        <time>2020-02-23T14:40:32Z</time>
      </trkpt>
      <trkpt lat="43.94822" lon="2.36865">
        <ele>248.64</ele>
        <time>2020-02-23T14:40:41Z</time>
      </trkpt>
      <trkpt lat="43.94818" lon="2.36874">
        <ele>246.72</ele>
        <time>2020-02-23T14:40:47Z</time>
      </trkpt>
      <trkpt lat="43.94814" lon="2.36889">
        <ele>244.79</ele>
        <time>2020-02-23T14:40:55Z</time>
      </trkpt>
      <trkpt lat="43.94812" lon="2.36898">
        <ele>242.39</ele>
        <time>2020-02-23T14:41:00Z</time>
      </trkpt>
      <trkpt lat="43.94807" lon="2.36915">
        <ele>239.02</ele>
        <time>2020-02-23T14:41:09Z</time>
      </trkpt>
      <trkpt lat="43.94797" lon="2.36934">
        <ele>234.7</ele>
        <time>2020-02-23T14:41:19Z</time>
      </trkpt>
      <trkpt lat="43.94791" lon="2.36946">
        <ele>232.78</ele>
        <time>2020-02-23T14:41:26Z</time>
      </trkpt>
      <trkpt lat="43.9479" lon="2.36952">
        <ele>232.3</ele>
        <time>2020-02-23T14:41:29Z</time>
      </trkpt>
      <trkpt lat="43.94788" lon="2.36955">
        <ele>232.78</ele>
        <time>2020-02-23T14:41:31Z</time>
      </trkpt>
      <trkpt lat="43.94783" lon="2.36973">
        <ele>232.3</ele>
        <time>2020-02-23T14:41:40Z</time>
      </trkpt>
      <trkpt lat="43.94778" lon="2.36991">
        <ele>234.7</ele>
        <time>2020-02-23T14:41:50Z</time>
      </trkpt>
      <trkpt lat="43.94774" lon="2.37003">
        <ele>235.66</ele>
        <time>2020-02-23T14:41:56Z</time>
      </trkpt>
      <trkpt lat="43.94771" lon="2.37016">
        <ele>234.7</ele>
        <time>2020-02-23T14:42:02Z</time>
      </trkpt>
      <trkpt lat="43.94766" lon="2.3703">
        <ele>233.26</ele>
        <time>2020-02-23T14:42:10Z</time>
      </trkpt>
      <trkpt lat="43.94761" lon="2.37043">
        <ele>231.33</ele>
        <time>2020-02-23T14:42:17Z</time>
      </trkpt>
      <trkpt lat="43.94755" lon="2.37053">
        <ele>231.33</ele>
        <time>2020-02-23T14:42:24Z</time>
      </trkpt>
      <trkpt lat="43.94745" lon="2.37063">
        <ele>232.3</ele>
        <time>2020-02-23T14:42:32Z</time>
      </trkpt>
      <trkpt lat="43.94735" lon="2.37078">
        <ele>232.78</ele>
        <time>2020-02-23T14:42:41Z</time>
      </trkpt>
      <trkpt lat="43.94726" lon="2.37091">
        <ele>231.33</ele>
        <time>2020-02-23T14:42:50Z</time>
      </trkpt>
      <trkpt lat="43.94719" lon="2.37101">
        <ele>231.33</ele>
        <time>2020-02-23T14:42:57Z</time>
      </trkpt>
      <trkpt lat="43.94711" lon="2.37109">
        <ele>231.33</ele>
        <time>2020-02-23T14:43:04Z</time>
      </trkpt>
      <trkpt lat="43.94699" lon="2.3712">
        <ele>231.81</ele>
        <time>2020-02-23T14:43:13Z</time>
      </trkpt>
      <trkpt lat="43.94685" lon="2.3713">
        <ele>234.22</ele>
        <time>2020-02-23T14:43:22Z</time>
      </trkpt>
      <trkpt lat="43.94672" lon="2.37141">
        <ele>237.58</ele>
        <time>2020-02-23T14:43:32Z</time>
      </trkpt>
      <trkpt lat="43.94662" lon="2.37154">
        <ele>242.39</ele>
        <time>2020-02-23T14:43:41Z</time>
      </trkpt>
      <trkpt lat="43.94657" lon="2.37158">
        <ele>255.37</ele>
        <time>2020-02-23T14:43:46Z</time>
      </trkpt>
      <trkpt lat="43.94654" lon="2.37163">
        <ele>263.54</ele>
        <time>2020-02-23T14:43:50Z</time>
      </trkpt>
      <trkpt lat="43.94653" lon="2.37166">
        <ele>265.46</ele>
        <time>2020-02-23T14:43:52Z</time>
      </trkpt>
      <trkpt lat="43.94649" lon="2.37183">
        <ele>271.71</ele>
        <time>2020-02-23T14:44:02Z</time>
      </trkpt>
      <trkpt lat="43.94648" lon="2.3719">
        <ele>273.15</ele>
        <time>2020-02-23T14:44:05Z</time>
      </trkpt>
      <trkpt lat="43.94652" lon="2.37207">
        <ele>274.59</ele>
        <time>2020-02-23T14:44:15Z</time>
      </trkpt>
      <trkpt lat="43.94652" lon="2.37222">
        <ele>275.07</ele>
        <time>2020-02-23T14:44:21Z</time>
      </trkpt>
      <trkpt lat="43.94654" lon="2.37234">
        <ele>275.07</ele>
        <time>2020-02-23T14:44:27Z</time>
      </trkpt>
      <trkpt lat="43.94655" lon="2.37251">
        <ele>271.23</ele>
        <time>2020-02-23T14:44:35Z</time>
      </trkpt>
      <trkpt lat="43.94654" lon="2.37266">
        <ele>268.83</ele>
        <time>2020-02-23T14:44:42Z</time>
      </trkpt>
      <trkpt lat="43.94653" lon="2.37274">
        <ele>267.38</ele>
        <time>2020-02-23T14:44:46Z</time>
      </trkpt>
      <trkpt lat="43.94653" lon="2.37287">
        <ele>264.5</ele>
        <time>2020-02-23T14:44:53Z</time>
      </trkpt>
      <trkpt lat="43.94653" lon="2.3729">
        <ele>263.06</ele>
        <time>2020-02-23T14:44:55Z</time>
      </trkpt>
      <trkpt lat="43.94653" lon="2.37305">
        <ele>259.21</ele>
        <time>2020-02-23T14:45:04Z</time>
      </trkpt>
      <trkpt lat="43.94653" lon="2.37319">
        <ele>256.33</ele>
        <time>2020-02-23T14:45:11Z</time>
      </trkpt>
      <trkpt lat="43.94654" lon="2.37337">
        <ele>255.85</ele>
        <time>2020-02-23T14:45:19Z</time>
      </trkpt>
      <trkpt lat="43.94655" lon="2.37359">
        <ele>256.81</ele>
        <time>2020-02-23T14:45:28Z</time>
      </trkpt>
      <trkpt lat="43.94657" lon="2.37364">
        <ele>256.33</ele>
        <time>2020-02-23T14:45:31Z</time>
      </trkpt>
      <trkpt lat="43.94657" lon="2.37383">
        <ele>255.37</ele>
        <time>2020-02-23T14:45:39Z</time>
      </trkpt>
      <trkpt lat="43.94657" lon="2.37395">
        <ele>254.41</ele>
        <time>2020-02-23T14:45:45Z</time>
      </trkpt>
      <trkpt lat="43.94658" lon="2.37413">
        <ele>253.44</ele>
        <time>2020-02-23T14:45:54Z</time>
      </trkpt>
      <trkpt lat="43.94659" lon="2.37427">
        <ele>251.04</ele>
        <time>2020-02-23T14:46:01Z</time>
      </trkpt>
      <trkpt lat="43.94661" lon="2.3744">
        <ele>250.08</ele>
        <time>2020-02-23T14:46:08Z</time>
      </trkpt>
      <trkpt lat="43.94664" lon="2.37454">
        <ele>246.72</ele>
        <time>2020-02-23T14:46:16Z</time>
      </trkpt>
      <trkpt lat="43.94665" lon="2.37459">
        <ele>245.27</ele>
        <time>2020-02-23T14:46:19Z</time>
      </trkpt>
      <trkpt lat="43.94667" lon="2.37462">
        <ele>244.79</ele>
        <time>2020-02-23T14:46:21Z</time>
      </trkpt>
      <trkpt lat="43.94672" lon="2.37477">
        <ele>239.51</ele>
        <time>2020-02-23T14:46:30Z</time>
      </trkpt>
      <trkpt lat="43.94673" lon="2.37477">
        <ele>239.02</ele>
        <time>2020-02-23T14:46:31Z</time>
      </trkpt>
      <trkpt lat="43.94679" lon="2.37487">
        <ele>237.58</ele>
        <time>2020-02-23T14:46:38Z</time>
      </trkpt>
      <trkpt lat="43.94684" lon="2.37494">
        <ele>235.18</ele>
        <time>2020-02-23T14:46:44Z</time>
      </trkpt>
      <trkpt lat="43.94697" lon="2.37506">
        <ele>235.66</ele>
        <time>2020-02-23T14:46:54Z</time>
      </trkpt>
      <trkpt lat="43.94704" lon="2.3751">
        <ele>238.06</ele>
        <time>2020-02-23T14:47:03Z</time>
      </trkpt>
      <trkpt lat="43.94708" lon="2.37512">
        <ele>238.54</ele>
        <time>2020-02-23T14:47:12Z</time>
      </trkpt>
      <trkpt lat="43.94713" lon="2.37514">
        <ele>239.02</ele>
        <time>2020-02-23T14:47:20Z</time>
      </trkpt>
      <trkpt lat="43.94709" lon="2.37518">
        <ele>238.54</ele>
        <time>2020-02-23T14:47:26Z</time>
      </trkpt>
      <trkpt lat="43.94695" lon="2.37527">
        <ele>240.95</ele>
        <time>2020-02-23T14:47:37Z</time>
      </trkpt>
      <trkpt lat="43.94687" lon="2.37533">
        <ele>242.39</ele>
        <time>2020-02-23T14:47:45Z</time>
      </trkpt>
      <trkpt lat="43.94682" lon="2.37535">
        <ele>242.39</ele>
        <time>2020-02-23T14:47:48Z</time>
      </trkpt>
      <trkpt lat="43.94672" lon="2.3754">
        <ele>241.91</ele>
        <time>2020-02-23T14:47:56Z</time>
      </trkpt>
      <trkpt lat="43.94665" lon="2.37546">
        <ele>241.43</ele>
        <time>2020-02-23T14:48:03Z</time>
      </trkpt>
      <trkpt lat="43.94655" lon="2.3755">
        <ele>239.99</ele>
        <time>2020-02-23T14:48:11Z</time>
      </trkpt>
      <trkpt lat="43.94647" lon="2.37552">
        <ele>238.54</ele>
        <time>2020-02-23T14:48:18Z</time>
      </trkpt>
      <trkpt lat="43.94641" lon="2.37552">
        <ele>236.62</ele>
        <time>2020-02-23T14:48:23Z</time>
      </trkpt>
      <trkpt lat="43.94631" lon="2.37545">
        <ele>231.81</ele>
        <time>2020-02-23T14:48:32Z</time>
      </trkpt>
      <trkpt lat="43.94624" lon="2.37538">
        <ele>229.89</ele>
        <time>2020-02-23T14:48:39Z</time>
      </trkpt>
      <trkpt lat="43.94621" lon="2.3753">
        <ele>227.97</ele>
        <time>2020-02-23T14:48:46Z</time>
      </trkpt>
      <trkpt lat="43.94611" lon="2.37526">
        <ele>226.53</ele>
        <time>2020-02-23T14:48:54Z</time>
      </trkpt>
      <trkpt lat="43.94608" lon="2.3753">
        <ele>225.57</ele>
        <time>2020-02-23T14:48:59Z</time>
      </trkpt>
      <trkpt lat="43.94608" lon="2.37535">
        <ele>223.64</ele>
        <time>2020-02-23T14:49:02Z</time>
      </trkpt>
      <trkpt lat="43.9461" lon="2.37545">
        <ele>219.8</ele>
        <time>2020-02-23T14:49:09Z</time>
      </trkpt>
      <trkpt lat="43.94614" lon="2.37555">
        <ele>214.51</ele>
        <time>2020-02-23T14:49:17Z</time>
      </trkpt>
      <trkpt lat="43.94617" lon="2.37562">
        <ele>211.15</ele>
        <time>2020-02-23T14:49:23Z</time>
      </trkpt>
      <trkpt lat="43.94619" lon="2.37567">
        <ele>210.19</ele>
        <time>2020-02-23T14:49:26Z</time>
      </trkpt>
      <trkpt lat="43.94626" lon="2.37582">
        <ele>208.26</ele>
        <time>2020-02-23T14:49:35Z</time>
      </trkpt>
      <trkpt lat="43.94633" lon="2.37587">
        <ele>206.34</ele>
        <time>2020-02-23T14:49:41Z</time>
      </trkpt>
      <trkpt lat="43.94642" lon="2.3759">
        <ele>203.46</ele>
        <time>2020-02-23T14:49:49Z</time>
      </trkpt>
      <trkpt lat="43.94643" lon="2.37597">
        <ele>202.49</ele>
        <time>2020-02-23T14:49:55Z</time>
      </trkpt>
      <trkpt lat="43.94641" lon="2.37605">
        <ele>202.01</ele>
        <time>2020-02-23T14:50:01Z</time>
      </trkpt>
      <trkpt lat="43.94641" lon="2.37608">
        <ele>201.05</ele>
        <time>2020-02-23T14:50:03Z</time>
      </trkpt>
      <trkpt lat="43.94636" lon="2.37611">
        <ele>200.09</ele>
        <time>2020-02-23T14:50:08Z</time>
      </trkpt>
      <trkpt lat="43.94626" lon="2.37603">
        <ele>196.25</ele>
        <time>2020-02-23T14:50:17Z</time>
      </trkpt>
      <trkpt lat="43.94623" lon="2.37594">
        <ele>194.32</ele>
        <time>2020-02-23T14:50:23Z</time>
      </trkpt>
      <trkpt lat="43.94616" lon="2.37583">
        <ele>190.96</ele>
        <time>2020-02-23T14:50:32Z</time>
      </trkpt>
      <trkpt lat="43.94613" lon="2.37581">
        <ele>190</ele>
        <time>2020-02-23T14:50:34Z</time>
      </trkpt>
      <trkpt lat="43.94602" lon="2.37583">
        <ele>191.44</ele>
        <time>2020-02-23T14:50:40Z</time>
      </trkpt>
      <trkpt lat="43.9459" lon="2.37602">
        <ele>197.69</ele>
        <time>2020-02-23T14:50:51Z</time>
      </trkpt>
      <trkpt lat="43.94579" lon="2.37616">
        <ele>200.57</ele>
        <time>2020-02-23T14:51:00Z</time>
      </trkpt>
      <trkpt lat="43.94569" lon="2.37629">
        <ele>202.98</ele>
        <time>2020-02-23T14:51:09Z</time>
      </trkpt>
      <trkpt lat="43.94562" lon="2.37641">
        <ele>204.9</ele>
        <time>2020-02-23T14:51:17Z</time>
      </trkpt>
      <trkpt lat="43.94552" lon="2.37658">
        <ele>208.26</ele>
        <time>2020-02-23T14:51:28Z</time>
      </trkpt>
      <trkpt lat="43.94542" lon="2.37672">
        <ele>209.7</ele>
        <time>2020-02-23T14:51:37Z</time>
      </trkpt>
      <trkpt lat="43.94534" lon="2.37683">
        <ele>211.15</ele>
        <time>2020-02-23T14:51:44Z</time>
      </trkpt>
      <trkpt lat="43.94526" lon="2.37693">
        <ele>213.55</ele>
        <time>2020-02-23T14:51:53Z</time>
      </trkpt>
      <trkpt lat="43.94524" lon="2.37701">
        <ele>214.03</ele>
        <time>2020-02-23T14:51:59Z</time>
      </trkpt>
      <trkpt lat="43.94514" lon="2.37716">
        <ele>213.55</ele>
        <time>2020-02-23T14:52:08Z</time>
      </trkpt>
      <trkpt lat="43.94504" lon="2.37731">
        <ele>210.19</ele>
        <time>2020-02-23T14:52:17Z</time>
      </trkpt>
      <trkpt lat="43.94493" lon="2.37748">
        <ele>208.74</ele>
        <time>2020-02-23T14:52:28Z</time>
      </trkpt>
      <trkpt lat="43.94485" lon="2.37757">
        <ele>207.78</ele>
        <time>2020-02-23T14:52:36Z</time>
      </trkpt>
      <trkpt lat="43.94481" lon="2.37761">
        <ele>207.78</ele>
        <time>2020-02-23T14:52:41Z</time>
      </trkpt>
      <trkpt lat="43.94474" lon="2.3776">
        <ele>207.78</ele>
        <time>2020-02-23T14:52:45Z</time>
      </trkpt>
      <trkpt lat="43.94462" lon="2.3775">
        <ele>207.78</ele>
        <time>2020-02-23T14:52:55Z</time>
      </trkpt>
      <trkpt lat="43.94458" lon="2.37743">
        <ele>207.78</ele>
        <time>2020-02-23T14:52:59Z</time>
      </trkpt>
      <trkpt lat="43.94457" lon="2.37738">
        <ele>207.3</ele>
        <time>2020-02-23T14:53:08Z</time>
      </trkpt>
    </trkseg>
  </trk>
</gpx>